BA1488 / G-EUOF 7700 Squawk Report (16th of May, 2022)

Aircraft A319 Reg No. G-EUOF Age 20 years old
Model A319 Jet engines 2 First flight 10-09-01
Registered 23-10-01 Rollout 09-01 Delivered 23-10-01
Construction No. 1590 Line No. N/A Series 131
ADSHEX 400942 Airline name British Airways Owner N/A
Airfield based Heathrow~Gtr London~G First tracked N/A

Flight history for G-EUOF

Route Flight No Date Playback
Heathrow (LHR) - Munich Airport (MUC) BA952 2022-06-28 12:20:00
Edinburgh (EDI) - Heathrow (LHR) BA1441 2022-06-28 10:46:00
Heathrow (LHR) - Edinburgh (EDI) BA1434 2022-06-28 08:18:00
Nuremberg (NUE) - Heathrow (LHR) BA925 2022-06-27 02:42:00
Heathrow (LHR) - Nuremberg (NUE) BA924 2022-06-26 18:27:00
Munich Airport (MUC) - Heathrow (LHR) BA961 2022-06-25 01:57:00
Heathrow (LHR) - Munich Airport (MUC) BA960 2022-06-24 17:11:00
Glasgow (GLA) - Heathrow (LHR) BA1499 2022-06-24 15:21:00
Gatwick (LGW) - Glasgow (GLA) BA2512 2022-06-24 11:10:00
Jersey (JER) - Gatwick (LGW) BA1361 2022-06-24 09:58:00
Heathrow (LHR) - Jersey (JER) BA1366 2022-06-23 18:28:00
Malpensa (MXP) - Heathrow (LHR) BA573 2022-06-23 14:42:00
Heathrow (LHR) - Malpensa (MXP) BA572 2022-06-23 10:12:00
Jersey (JER) - Heathrow (LHR) BA2767 2022-06-23 07:24:00
Heathrow (LHR) - Jersey (JER) BA2778 2022-06-23 06:26:00
Frankfurt Main (FRA) - Heathrow (LHR) BA909 2022-06-22 17:18:00
Heathrow (LHR) - Frankfurt Main (FRA) BA908 2022-06-22 16:04:00
Jersey (JER) - Heathrow (LHR) BA1365 2022-06-22 12:09:00
Gatwick (LGW) - Jersey (JER) BA1362 2022-06-22 11:09:00
Jersey (JER) - Gatwick (LGW) BA1361 2022-06-22 08:29:00
Time Lat Lon Altitude Heading Speed Vertical Rate
2022-05-16 17:22:02 GMT 55.866875 -4.434829 0 129 0 0
2022-05-16 17:21:58 GMT 55.866875 -4.434835 0 129 0 0
2022-05-16 17:21:56 GMT 55.866875 -4.434850 0 129 0 0
2022-05-16 17:21:53 GMT 55.866875 -4.434835 0 129 0 0
2022-05-16 17:21:50 GMT 55.866886 -4.434829 0 129 0 0
2022-05-16 17:21:48 GMT 55.866886 -4.434814 0 129 0 0
2022-05-16 17:21:44 GMT 55.866898 -4.434856 0 126 0 0
2022-05-16 17:21:42 GMT 55.866909 -4.434850 0 126 0 0
2022-05-16 17:21:39 GMT 55.866909 -4.434877 0 126 1 0
2022-05-16 17:21:34 GMT 55.866920 -4.434893 0 126 2 0
2022-05-16 17:21:29 GMT 55.866943 -4.434958 0 126 2 0
2022-05-16 17:21:20 GMT 55.867023 -4.435106 0 126 5 0
2022-05-16 17:21:19 GMT 55.867039 -4.435151 0 126 5 0
2022-05-16 17:21:16 GMT 55.867058 -4.435231 0 126 6 0
2022-05-16 17:21:15 GMT 55.867085 -4.435279 0 126 6 0
2022-05-16 17:21:13 GMT 55.867115 -4.435355 0 129 6 0
2022-05-16 17:21:09 GMT 55.867165 -4.435494 0 135 6 0
2022-05-16 17:21:08 GMT 55.867172 -4.435522 0 137 6 0
2022-05-16 17:21:06 GMT 55.867214 -4.435601 0 149 6 0
2022-05-16 17:21:02 GMT 55.867271 -4.435730 0 171 6 0
2022-05-16 17:21:01 GMT 55.867298 -4.435751 0 180 6 0
2022-05-16 17:21:00 GMT 55.867340 -4.435794 0 191 6 0
2022-05-16 17:20:57 GMT 55.867413 -4.435792 0 208 5 0
2022-05-16 17:20:54 GMT 55.867504 -4.435730 0 225 6 0
2022-05-16 17:20:51 GMT 55.867550 -4.435709 0 233 6 0
2022-05-16 17:20:48 GMT 55.867607 -4.435605 0 250 7 0
2022-05-16 17:20:47 GMT 55.867641 -4.435480 0 253 9 0
2022-05-16 17:20:45 GMT 55.867641 -4.435451 0 253 10 0
2022-05-16 17:20:42 GMT 55.867691 -4.435215 0 253 11 0
2022-05-16 17:20:39 GMT 55.867722 -4.435002 0 255 12 0
2022-05-16 17:20:37 GMT 55.867756 -4.434794 0 253 13 0
2022-05-16 17:20:36 GMT 55.867779 -4.434648 0 253 13 0
2022-05-16 17:20:33 GMT 55.867813 -4.434419 0 253 14 0
2022-05-16 17:20:32 GMT 55.867836 -4.434253 0 253 14 0
2022-05-16 17:20:29 GMT 55.867912 -4.433842 0 255 14 0
2022-05-16 17:20:26 GMT 55.867962 -4.433504 0 255 15 0
2022-05-16 17:20:23 GMT 55.868019 -4.433129 0 255 17 0
2022-05-16 17:20:21 GMT 55.868042 -4.432983 0 253 17 0
2022-05-16 17:20:19 GMT 55.868099 -4.432609 0 253 18 0
2022-05-16 17:20:18 GMT 55.868099 -4.432609 0 253 18 0
2022-05-16 17:20:17 GMT 55.868122 -4.432463 0 253 18 0
2022-05-16 17:20:16 GMT 55.868168 -4.432172 0 253 17 0
2022-05-16 17:20:14 GMT 55.868191 -4.432039 0 253 17 0
2022-05-16 17:20:13 GMT 55.868214 -4.431922 0 253 17 0
2022-05-16 17:20:10 GMT 55.868271 -4.431527 0 253 16 0
2022-05-16 17:20:09 GMT 55.868317 -4.431298 0 253 16 0
2022-05-16 17:20:07 GMT 55.868340 -4.431132 0 255 16 0
2022-05-16 17:20:05 GMT 55.868378 -4.430902 0 255 15 0
2022-05-16 17:20:04 GMT 55.868397 -4.430778 0 253 15 0
2022-05-16 17:20:01 GMT 55.868446 -4.430430 0 247 14 0
2022-05-16 17:20:00 GMT 55.868469 -4.430344 0 244 14 0
2022-05-16 17:19:58 GMT 55.868515 -4.430130 0 230 14 0
2022-05-16 17:19:57 GMT 55.868534 -4.430070 0 227 14 0
2022-05-16 17:19:56 GMT 55.868622 -4.429893 0 216 13 0
2022-05-16 17:19:53 GMT 55.868717 -4.429758 0 210 15 0
2022-05-16 17:19:52 GMT 55.868786 -4.429696 0 208 16 0
2022-05-16 17:19:50 GMT 55.868855 -4.429613 0 208 16 0
2022-05-16 17:19:49 GMT 55.868946 -4.429529 0 208 18 0
2022-05-16 17:19:48 GMT 55.869049 -4.429446 0 205 18 0
2022-05-16 17:19:47 GMT 55.869167 -4.429336 0 205 18 0
2022-05-16 17:19:45 GMT 55.869324 -4.429196 0 208 19 0
2022-05-16 17:19:43 GMT 55.869392 -4.429155 0 208 19 0
2022-05-16 17:19:42 GMT 55.869553 -4.429014 0 208 20 0
2022-05-16 17:19:40 GMT 55.869656 -4.428905 0 205 20 0
2022-05-16 17:19:39 GMT 55.869724 -4.428842 0 205 20 0
2022-05-16 17:19:38 GMT 55.869907 -4.428697 0 202 21 0
2022-05-16 17:19:35 GMT 55.870155 -4.428520 0 199 22 0
2022-05-16 17:19:33 GMT 55.870239 -4.428456 0 199 22 0
2022-05-16 17:19:31 GMT 55.870426 -4.428349 0 199 23 0
2022-05-16 17:19:30 GMT 55.870525 -4.428281 0 199 23 0
2022-05-16 17:19:28 GMT 55.870739 -4.428155 0 199 24 0
2022-05-16 17:19:27 GMT 55.870857 -4.428073 0 199 24 0
2022-05-16 17:19:24 GMT 55.871086 -4.427941 0 199 24 0
2022-05-16 17:19:23 GMT 55.871189 -4.427865 0 199 23 0
2022-05-16 17:19:22 GMT 55.871346 -4.427769 0 199 23 0
2022-05-16 17:19:21 GMT 55.871452 -4.427698 0 199 23 0
2022-05-16 17:19:20 GMT 55.871647 -4.427573 0 202 22 0
2022-05-16 17:19:18 GMT 55.871750 -4.427490 0 202 22 0
2022-05-16 17:19:16 GMT 55.871925 -4.427361 0 202 22 0
2022-05-16 17:19:15 GMT 55.872021 -4.427276 0 202 21 0
2022-05-16 17:19:13 GMT 55.872204 -4.427147 0 202 21 0
2022-05-16 17:19:12 GMT 55.872253 -4.427116 0 202 21 0
2022-05-16 17:19:10 GMT 55.872437 -4.426975 0 199 21 0
2022-05-16 17:19:09 GMT 55.872623 -4.426868 0 199 20 0
2022-05-16 17:19:07 GMT 55.872707 -4.426825 0 199 20 0
2022-05-16 17:19:06 GMT 55.872883 -4.426700 0 199 20 0
2022-05-16 17:19:02 GMT 55.873135 -4.426546 0 199 19 0
2022-05-16 17:19:01 GMT 55.873219 -4.426482 0 199 19 0
2022-05-16 17:19:00 GMT 55.873299 -4.426439 0 199 19 0
2022-05-16 17:18:58 GMT 55.873474 -4.426332 0 199 18 0
2022-05-16 17:18:57 GMT 55.873543 -4.426267 0 202 18 0
2022-05-16 17:18:55 GMT 55.873707 -4.426159 0 208 18 0
2022-05-16 17:18:54 GMT 55.873764 -4.426096 0 213 18 0
2022-05-16 17:18:53 GMT 55.873844 -4.426010 0 219 18 0
2022-05-16 17:18:52 GMT 55.873947 -4.425888 0 222 17 0
2022-05-16 17:18:49 GMT 55.874126 -4.425581 0 227 18 0
2022-05-16 17:18:47 GMT 55.874172 -4.425473 0 227 18 0
2022-05-16 17:18:46 GMT 55.874290 -4.425264 0 227 19 0
2022-05-16 17:18:44 GMT 55.874359 -4.425139 0 225 20 0
2022-05-16 17:18:42 GMT 55.874496 -4.424889 0 227 20 0
2022-05-16 17:18:41 GMT 55.874565 -4.424764 0 227 20 0
2022-05-16 17:18:39 GMT 55.874660 -4.424572 0 227 20 0
2022-05-16 17:18:38 GMT 55.874748 -4.424411 0 227 19 0
2022-05-16 17:18:37 GMT 55.874779 -4.424336 0 227 19 0
2022-05-16 17:18:34 GMT 55.874977 -4.423974 0 227 19 0
2022-05-16 17:18:33 GMT 55.875080 -4.423778 0 227 18 0
2022-05-16 17:18:31 GMT 55.875137 -4.423671 0 227 18 0
2022-05-16 17:18:29 GMT 55.875252 -4.423454 0 225 18 0
2022-05-16 17:18:28 GMT 55.875309 -4.423350 0 225 17 0
2022-05-16 17:18:27 GMT 55.875435 -4.423121 0 225 17 0
2022-05-16 17:18:25 GMT 55.875481 -4.423017 0 225 17 0
2022-05-16 17:18:23 GMT 55.875580 -4.422855 0 225 17 0
2022-05-16 17:18:21 GMT 55.875675 -4.422663 0 225 16 0
2022-05-16 17:18:20 GMT 55.875732 -4.422576 0 225 16 0
2022-05-16 17:18:19 GMT 55.875824 -4.422392 0 225 16 0
2022-05-16 17:18:17 GMT 55.875881 -4.422288 0 225 15 0
2022-05-16 17:18:15 GMT 55.875961 -4.422122 0 219 15 0
2022-05-16 17:18:13 GMT 55.876102 -4.421911 0 210 15 0
2022-05-16 17:18:11 GMT 55.876179 -4.421831 0 205 14 0
2022-05-16 17:18:10 GMT 55.876301 -4.421718 0 196 14 0
2022-05-16 17:18:08 GMT 55.876362 -4.421697 0 191 14 0
2022-05-16 17:18:07 GMT 55.876419 -4.421654 0 188 14 0
2022-05-16 17:18:05 GMT 55.876568 -4.421623 0 180 14 0
2022-05-16 17:18:03 GMT 55.876671 -4.421602 0 174 14 0
2022-05-16 17:18:02 GMT 55.876740 -4.421623 0 168 13 0
2022-05-16 17:18:00 GMT 55.876816 -4.421632 0 163 13 0
2022-05-16 17:17:59 GMT 55.876911 -4.421685 0 157 13 0
2022-05-16 17:17:58 GMT 55.876976 -4.421718 0 154 13 0
2022-05-16 17:17:56 GMT 55.877083 -4.421804 0 149 12 0
2022-05-16 17:17:54 GMT 55.877270 -4.422019 0 137 12 0
2022-05-16 17:17:52 GMT 55.877270 -4.422019 0 135 12 0
2022-05-16 17:17:50 GMT 55.877346 -4.422143 0 132 12 0
2022-05-16 17:17:49 GMT 55.877384 -4.422212 0 126 12 0
2022-05-16 17:17:45 GMT 55.877518 -4.422580 0 84 11 0
2022-05-16 17:17:43 GMT 55.877525 -4.422641 0 81 11 0
2022-05-16 17:17:41 GMT 55.877518 -4.422829 0 64 10 0
2022-05-16 17:17:40 GMT 55.877514 -4.422920 0 59 10 0
2022-05-16 17:17:39 GMT 55.877472 -4.423037 0 53 11 0
2022-05-16 17:17:37 GMT 55.877438 -4.423121 0 50 13 0
2022-05-16 17:17:36 GMT 55.877403 -4.423204 0 47 15 0
2022-05-16 17:17:35 GMT 55.877304 -4.423392 0 47 18 0
2022-05-16 17:17:33 GMT 55.877243 -4.423516 0 47 20 0
2022-05-16 17:17:32 GMT 55.877117 -4.423757 0 47 25 0
2022-05-16 17:17:29 GMT 55.877022 -4.423928 0 47 26 0
2022-05-16 17:17:27 GMT 55.876820 -4.424307 0 47 27 0
2022-05-16 17:17:26 GMT 55.876659 -4.424619 0 45 28 0
2022-05-16 17:17:24 GMT 55.876522 -4.424868 0 47 30 0
2022-05-16 17:17:23 GMT 55.876431 -4.425035 0 47 31 0
2022-05-16 17:17:20 GMT 55.876156 -4.425555 0 47 32 0
2022-05-16 17:17:17 GMT 55.875847 -4.426117 0 47 34 0
2022-05-16 17:17:14 GMT 55.875546 -4.426696 0 47 36 0
2022-05-16 17:17:12 GMT 55.875309 -4.427137 0 47 37 0
2022-05-16 17:17:11 GMT 55.875069 -4.427598 0 47 39 0
2022-05-16 17:17:09 GMT 55.874943 -4.427823 0 47 40 0
2022-05-16 17:17:07 GMT 55.874649 -4.428349 0 47 43 0
2022-05-16 17:17:05 GMT 55.874439 -4.428759 0 47 46 0
2022-05-16 17:17:04 GMT 55.874275 -4.429057 0 47 48 0
2022-05-16 17:17:03 GMT 55.874104 -4.429379 0 45 49 0
2022-05-16 17:17:01 GMT 55.873821 -4.429925 0 47 51 0
2022-05-16 17:16:58 GMT 55.873287 -4.430902 0 47 60 0
2022-05-16 17:16:57 GMT 55.873066 -4.431331 0 47 63 0
2022-05-16 17:16:56 GMT 55.872860 -4.431714 0 47 67 0
2022-05-16 17:16:55 GMT 55.872402 -4.432546 0 47 76 0
2022-05-16 17:16:53 GMT 55.872185 -4.432963 0 47 76 0
2022-05-16 17:16:51 GMT 55.871727 -4.433837 0 47 84 0
2022-05-16 17:16:49 GMT 55.870552 -4.436009 25 47 100 0
2022-05-16 17:16:47 GMT 55.869995 -4.437103 25 46 102 -128
2022-05-16 17:16:45 GMT 55.869995 -4.437103 25 46 102 -128
2022-05-16 17:16:41 GMT 55.868736 -4.439421 0 46 116 -128
2022-05-16 17:16:40 GMT 55.867714 -4.441223 25 46 123 -192
2022-05-16 17:16:38 GMT 55.867340 -4.441996 0 46 125 -192
2022-05-16 17:16:33 GMT 55.865570 -4.445385 50 46 127 -256
2022-05-16 17:16:32 GMT 55.864922 -4.446545 50 45 128 -512
2022-05-16 17:16:31 GMT 55.864502 -4.447317 75 45 128 -512
2022-05-16 17:16:29 GMT 55.863850 -4.448519 100 45 128 -576
2022-05-16 17:16:27 GMT 55.862457 -4.451044 125 46 128 -704
2022-05-16 17:16:25 GMT 55.862045 -4.451793 150 46 128 -640
2022-05-16 17:16:24 GMT 55.861313 -4.453208 175 47 128 -640
2022-05-16 17:16:22 GMT 55.860825 -4.454184 175 47 127 -576
2022-05-16 17:16:21 GMT 55.860397 -4.455039 200 47 126 -704
2022-05-16 17:16:19 GMT 55.859756 -4.456288 225 46 125 -768
2022-05-16 17:16:17 GMT 55.858822 -4.458046 250 45 125 -640
2022-05-16 17:16:15 GMT 55.858124 -4.459248 250 45 125 -640
2022-05-16 17:16:14 GMT 55.857742 -4.459950 275 46 125 -704
2022-05-16 17:16:13 GMT 55.856781 -4.461781 300 46 125 -768
2022-05-16 17:16:10 GMT 55.855728 -4.463695 325 46 126 -640
2022-05-16 17:16:08 GMT 55.855286 -4.464569 350 46 126 -640
2022-05-16 17:16:07 GMT 55.854492 -4.466026 375 46 128 -704
2022-05-16 17:16:05 GMT 55.854073 -4.466801 375 46 128 -768
2022-05-16 17:16:04 GMT 55.853703 -4.467573 375 46 128 -768
2022-05-16 17:16:01 GMT 55.852676 -4.469461 425 46 128 -768
2022-05-16 17:15:59 GMT 55.851471 -4.471685 450 46 128 -640
2022-05-16 17:15:58 GMT 55.850830 -4.472850 475 45 128 -576
2022-05-16 17:15:56 GMT 55.849823 -4.474682 500 45 128 -640
2022-05-16 17:15:53 GMT 55.848587 -4.476929 525 46 126 -704
2022-05-16 17:15:51 GMT 55.848175 -4.477761 550 46 126 -704
2022-05-16 17:15:48 GMT 55.847122 -4.479675 575 46 125 -704
2022-05-16 17:15:47 GMT 55.846764 -4.480448 575 46 125 -704
2022-05-16 17:15:46 GMT 55.846344 -4.481257 600 46 125 -704
2022-05-16 17:15:42 GMT 55.844650 -4.484419 650 46 125 -576
2022-05-16 17:15:40 GMT 55.844250 -4.485168 650 46 125 -640
2022-05-16 17:15:39 GMT 55.843460 -4.486583 675 45 126 -704
2022-05-16 17:15:37 GMT 55.843048 -4.487416 675 46 127 -704
2022-05-16 17:15:36 GMT 55.842316 -4.488747 700 46 127 -640
2022-05-16 17:15:34 GMT 55.841923 -4.489460 725 46 127 -640
2022-05-16 17:15:33 GMT 55.841133 -4.491005 750 46 125 -640
2022-05-16 17:15:31 GMT 55.840714 -4.491744 750 46 125 -640
2022-05-16 17:15:30 GMT 55.840294 -4.492550 775 46 123 -640
2022-05-16 17:15:29 GMT 55.839500 -4.493923 775 46 123 -640
2022-05-16 17:15:27 GMT 55.839111 -4.494740 800 46 123 -704
2022-05-16 17:15:25 GMT 55.838291 -4.496241 825 46 123 -704
2022-05-16 17:15:24 GMT 55.837921 -4.497013 825 46 123 -704
2022-05-16 17:15:23 GMT 55.836777 -4.499068 850 46 123 -704
2022-05-16 17:15:21 GMT 55.836777 -4.499068 850 46 123 -640
2022-05-16 17:15:19 GMT 55.835495 -4.501481 900 45 123 -576
2022-05-16 17:15:17 GMT 55.835083 -4.502231 900 45 123 -576
2022-05-16 17:15:16 GMT 55.834290 -4.503622 925 45 123 -704
2022-05-16 17:15:14 GMT 55.833527 -4.505060 950 45 123 -640
2022-05-16 17:15:11 GMT 55.832287 -4.507313 1,000 45 123 -704
2022-05-16 17:15:08 GMT 55.831123 -4.509459 1,025 45 122 -640
2022-05-16 17:15:07 GMT 55.830322 -4.510886 1,050 45 122 -640
2022-05-16 17:15:05 GMT 55.829914 -4.511604 1,050 45 123 -576
2022-05-16 17:15:03 GMT 55.829166 -4.512978 1,075 45 123 -576
2022-05-16 17:15:02 GMT 55.828812 -4.513633 1,075 45 123 -640
2022-05-16 17:15:01 GMT 55.827621 -4.515880 1,125 45 125 -768
2022-05-16 17:14:59 GMT 55.827621 -4.515880 1,125 45 125 -768
2022-05-16 17:14:57 GMT 55.827164 -4.516629 1,125 46 125 -768
2022-05-16 17:14:56 GMT 55.826797 -4.517295 1,125 46 125 -768
2022-05-16 17:14:55 GMT 55.825974 -4.518877 1,150 46 127 -704
2022-05-16 17:14:52 GMT 55.825150 -4.520375 1,175 46 127 -640
2022-05-16 17:14:51 GMT 55.824783 -4.521124 1,200 46 128 -640
2022-05-16 17:14:50 GMT 55.824371 -4.521790 1,200 46 128 -640
2022-05-16 17:14:48 GMT 55.823593 -4.523288 1,225 45 129 -704
2022-05-16 17:14:47 GMT 55.822975 -4.524393 1,250 46 128 -704
2022-05-16 17:14:46 GMT 55.821808 -4.526617 1,275 46 130 -768
2022-05-16 17:14:44 GMT 55.821808 -4.526617 1,300 46 130 -704
2022-05-16 17:14:43 GMT 55.821396 -4.527366 1,300 46 130 -704
2022-05-16 17:14:41 GMT 55.820648 -4.528770 1,325 46 129 -704
2022-05-16 17:14:40 GMT 55.819702 -4.530529 1,350 46 128 -768
2022-05-16 17:14:38 GMT 55.819336 -4.531278 1,375 46 128 -576
2022-05-16 17:14:36 GMT 55.818237 -4.533275 1,375 46 128 -512
2022-05-16 17:14:34 GMT 55.817780 -4.534108 1,400 46 128 -512
2022-05-16 17:14:33 GMT 55.816956 -4.535689 1,400 46 128 -640
2022-05-16 17:14:31 GMT 55.816505 -4.536495 1,425 47 129 -704
2022-05-16 17:14:30 GMT 55.815720 -4.538019 1,475 47 130 -640
2022-05-16 17:14:28 GMT 55.815308 -4.538852 1,450 47 130 -640
2022-05-16 17:14:27 GMT 55.814896 -4.539684 1,475 47 130 -704
2022-05-16 17:14:25 GMT 55.813992 -4.541388 1,500 47 130 -768
2022-05-16 17:14:23 GMT 55.813202 -4.542930 1,525 48 131 -704
2022-05-16 17:14:22 GMT 55.812378 -4.544595 1,600 47 132 -640
2022-05-16 17:14:20 GMT 55.811966 -4.545344 1,550 48 133 -640
2022-05-16 17:14:19 GMT 55.810688 -4.547911 1,575 47 133 -768
2022-05-16 17:14:17 GMT 55.810688 -4.547911 1,575 48 134 -768
2022-05-16 17:14:16 GMT 55.809860 -4.549505 1,625 47 135 -704
2022-05-16 17:14:14 GMT 55.809448 -4.550254 1,625 47 136 -704
2022-05-16 17:14:13 GMT 55.808624 -4.551919 1,625 47 137 -640
2022-05-16 17:14:11 GMT 55.808220 -4.552631 1,650 47 139 -704
2022-05-16 17:14:10 GMT 55.807846 -4.553404 1,650 47 139 -704
2022-05-16 17:14:08 GMT 55.806793 -4.555331 1,700 47 141 -768
2022-05-16 17:14:06 GMT 55.805878 -4.557079 1,700 47 142 -768
2022-05-16 17:14:05 GMT 55.805420 -4.557994 1,725 47 144 -832
2022-05-16 17:14:04 GMT 55.804688 -4.559409 1,750 47 145 -832
2022-05-16 17:14:01 GMT 55.803131 -4.562406 1,800 47 148 -896
2022-05-16 17:13:59 GMT 55.802681 -4.563274 1,825 47 150 -896
2022-05-16 17:13:57 GMT 55.801758 -4.564986 1,825 46 152 -960
2022-05-16 17:13:56 GMT 55.801300 -4.565901 1,850 46 152 -960
2022-05-16 17:13:54 GMT 55.800339 -4.567732 1,875 46 154 -1024
2022-05-16 17:13:52 GMT 55.799328 -4.569626 1,900 46 156 -1024
2022-05-16 17:13:51 GMT 55.798553 -4.571062 1,925 46 157 -1024
2022-05-16 17:13:49 GMT 55.796814 -4.574261 2,000 45 160 -1088
2022-05-16 17:13:47 GMT 55.796356 -4.575057 2,025 45 161 -1024
2022-05-16 17:13:45 GMT 55.795807 -4.576055 2,025 45 162 -960
2022-05-16 17:13:44 GMT 55.794708 -4.578053 2,075 44 164 -832
2022-05-16 17:13:42 GMT 55.794113 -4.579052 2,100 44 165 -768
2022-05-16 17:13:41 GMT 55.793556 -4.580011 2,100 44 166 -832
2022-05-16 17:13:40 GMT 55.792393 -4.581985 2,125 43 166 -960
2022-05-16 17:13:38 GMT 55.792065 -4.582500 2,150 43 166 -1024
2022-05-16 17:13:36 GMT 55.790298 -4.585505 2,200 42 166 -1024
2022-05-16 17:13:34 GMT 55.789738 -4.586449 2,225 42 167 -960
2022-05-16 17:13:32 GMT 55.788574 -4.588373 2,250 40 168 -896
2022-05-16 17:13:31 GMT 55.787922 -4.589367 2,250 39 168 -1024
2022-05-16 17:13:28 GMT 55.786102 -4.591952 2,325 36 170 -1024
2022-05-16 17:13:25 GMT 55.784290 -4.594173 2,350 27 170 -1024
2022-05-16 17:13:23 GMT 55.782898 -4.595614 2,400 25 171 -1024
2022-05-16 17:13:22 GMT 55.782166 -4.596197 2,400 22 172 -960
2022-05-16 17:13:19 GMT 55.779030 -4.598122 2,475 11 172 -640
2022-05-16 17:13:17 GMT 55.778240 -4.598379 2,475 9 173 -512
2022-05-16 17:13:16 GMT 55.776627 -4.598860 2,500 6 174 -320
2022-05-16 17:13:14 GMT 55.775864 -4.598980 2,500 5 173 -320
2022-05-16 17:13:13 GMT 55.775074 -4.599152 2,500 5 174 -384
2022-05-16 17:13:11 GMT 55.773605 -4.599360 2,500 5 175 -384
2022-05-16 17:13:10 GMT 55.772736 -4.599526 2,525 5 175 -512
2022-05-16 17:13:09 GMT 55.771072 -4.599752 2,550 5 175 -576
2022-05-16 17:13:07 GMT 55.770218 -4.599859 2,550 5 175 -512
2022-05-16 17:13:06 GMT 55.769394 -4.600010 2,575 5 175 -576
2022-05-16 17:13:05 GMT 55.767792 -4.600275 2,575 5 176 -576
2022-05-16 17:13:03 GMT 55.767059 -4.600442 2,600 5 176 -576
2022-05-16 17:13:01 GMT 55.765457 -4.600691 2,600 5 176 -576
2022-05-16 17:13:00 GMT 55.764553 -4.600868 2,625 5 176 -704
2022-05-16 17:12:59 GMT 55.762070 -4.601274 2,650 5 176 -768
2022-05-16 17:12:57 GMT 55.762070 -4.601274 2,650 5 176 -768
2022-05-16 17:12:55 GMT 55.760502 -4.601555 2,675 6 177 -704
2022-05-16 17:12:54 GMT 55.759735 -4.601690 2,675 6 176 -704
2022-05-16 17:12:53 GMT 55.757244 -4.602156 2,725 6 176 -576
2022-05-16 17:12:50 GMT 55.756393 -4.602356 2,725 7 176 -512
2022-05-16 17:12:49 GMT 55.754791 -4.602689 2,725 7 176 -448
2022-05-16 17:12:47 GMT 55.753830 -4.602939 2,750 7 176 -448
2022-05-16 17:12:46 GMT 55.753189 -4.603105 2,750 8 176 -512
2022-05-16 17:12:45 GMT 55.751678 -4.603438 2,775 8 177 -576
2022-05-16 17:12:43 GMT 55.748474 -4.604353 2,800 10 177 -640
2022-05-16 17:12:41 GMT 55.748474 -4.604353 2,825 11 178 -640
2022-05-16 17:12:40 GMT 55.746864 -4.604988 2,825 12 179 -768
2022-05-16 17:12:38 GMT 55.745224 -4.605602 2,875 14 179 -960
2022-05-16 17:12:36 GMT 55.744858 -4.605768 2,875 14 179 -1024
2022-05-16 17:12:35 GMT 55.743118 -4.606601 2,925 14 179 -1024
2022-05-16 17:12:33 GMT 55.742256 -4.606962 2,925 14 178 -960
2022-05-16 17:12:32 GMT 55.741417 -4.607391 2,950 14 178 -1024
2022-05-16 17:12:30 GMT 55.739777 -4.608099 2,975 13 178 -640
2022-05-16 17:12:28 GMT 55.738586 -4.608598 3,000 13 178 -512
2022-05-16 17:12:27 GMT 55.737411 -4.609194 3,000 13 178 -320
2022-05-16 17:12:26 GMT 55.736984 -4.609347 3,000 13 178 -384
2022-05-16 17:12:25 GMT 55.735039 -4.610224 3,025 13 178 -320
2022-05-16 17:12:23 GMT 55.734192 -4.610596 3,025 13 178 -192
2022-05-16 17:12:22 GMT 55.732498 -4.611262 3,025 13 178 0
2022-05-16 17:12:19 GMT 55.730942 -4.611940 3,025 13 180 -128
2022-05-16 17:12:18 GMT 55.730244 -4.612284 3,050 12 181 -64
2022-05-16 17:12:17 GMT 55.729431 -4.612593 3,050 12 181 -64
2022-05-16 17:12:15 GMT 55.727825 -4.613228 3,050 12 182 -64
2022-05-16 17:12:14 GMT 55.726940 -4.613571 3,050 11 183 -64
2022-05-16 17:12:13 GMT 55.726273 -4.613758 3,050 10 183 0
2022-05-16 17:12:11 GMT 55.724625 -4.614341 3,025 9 184 64
2022-05-16 17:12:10 GMT 55.722797 -4.614859 3,025 6 184 64
2022-05-16 17:12:08 GMT 55.721958 -4.615030 3,025 4 184 0
2022-05-16 17:12:06 GMT 55.720238 -4.615288 3,025 0 186 0
2022-05-16 17:12:05 GMT 55.719360 -4.615340 3,025 359 186 64
2022-05-16 17:12:04 GMT 55.717529 -4.615173 3,025 353 186 -64
2022-05-16 17:12:02 GMT 55.715790 -4.614757 3,025 351 186 -128
2022-05-16 17:12:00 GMT 55.715332 -4.614591 3,025 346 186 0
2022-05-16 17:11:58 GMT 55.713627 -4.613829 3,050 343 186 64
2022-05-16 17:11:57 GMT 55.712788 -4.613400 3,050 338 186 -64
2022-05-16 17:11:55 GMT 55.711121 -4.612177 3,050 333 185 -128
2022-05-16 17:11:52 GMT 55.708969 -4.610096 3,050 326 183 64
2022-05-16 17:11:51 GMT 55.706818 -4.607267 3,050 321 182 192
2022-05-16 17:11:49 GMT 55.706818 -4.607267 3,025 319 182 64
2022-05-16 17:11:46 GMT 55.704849 -4.604104 3,025 315 183 -64
2022-05-16 17:11:45 GMT 55.703102 -4.600954 3,025 315 184 -128
2022-05-16 17:11:43 GMT 55.703102 -4.600954 3,025 315 185 -192
2022-05-16 17:11:41 GMT 55.702286 -4.599443 3,050 314 190 -320
2022-05-16 17:11:38 GMT 55.700272 -4.595698 3,050 314 191 -320
2022-05-16 17:11:36 GMT 55.697845 -4.591370 3,075 315 196 -576
2022-05-16 17:11:34 GMT 55.697845 -4.591370 3,075 315 196 -576
2022-05-16 17:11:31 GMT 55.695843 -4.587736 3,100 315 199 -832
2022-05-16 17:11:30 GMT 55.695328 -4.586709 3,125 315 200 -960
2022-05-16 17:11:27 GMT 55.693420 -4.583273 3,175 315 202 -1088
2022-05-16 17:11:25 GMT 55.692070 -4.580784 3,200 315 203 -1216
2022-05-16 17:11:23 GMT 55.690659 -4.578303 3,250 315 205 -1280
2022-05-16 17:11:20 GMT 55.688534 -4.574518 3,350 315 207 -1408
2022-05-16 17:11:18 GMT 55.687279 -4.572201 3,375 315 208 -1408
2022-05-16 17:11:17 GMT 55.686539 -4.570895 3,400 315 210 -1280
2022-05-16 17:11:15 GMT 55.685181 -4.568424 3,450 315 210 -1088
2022-05-16 17:11:13 GMT 55.683926 -4.566107 3,500 315 212 -1216
2022-05-16 17:11:12 GMT 55.683105 -4.564653 3,500 315 212 -1152
2022-05-16 17:11:11 GMT 55.681225 -4.561214 3,550 315 214 -1024
2022-05-16 17:11:09 GMT 55.681225 -4.561214 3,550 315 217 -1088
2022-05-16 17:11:08 GMT 55.678852 -4.557009 3,625 315 217 -1088
2022-05-16 17:11:06 GMT 55.678852 -4.557009 3,625 315 217 -1088
2022-05-16 17:11:05 GMT 55.678104 -4.555635 3,650 315 219 -1152
2022-05-16 17:11:03 GMT 55.676788 -4.553334 3,675 315 222 -1280
2022-05-16 17:11:02 GMT 55.676056 -4.552085 3,700 315 222 -1472
2022-05-16 17:11:00 GMT 55.671963 -4.544821 3,875 315 226 -1792
2022-05-16 17:10:57 GMT 55.671963 -4.544821 3,875 315 226 -1792
2022-05-16 17:10:56 GMT 55.670471 -4.542160 3,950 315 228 -1792
2022-05-16 17:10:53 GMT 55.669739 -4.540849 3,975 315 228 -1856
2022-05-16 17:10:52 GMT 55.668751 -4.539070 4,000 315 231 -1792
2022-05-16 17:10:50 GMT 55.666351 -4.534857 4,075 315 234 -1600
2022-05-16 17:10:48 GMT 55.665573 -4.533442 4,100 315 236 -1664
2022-05-16 17:10:46 GMT 55.663239 -4.529197 4,175 315 240 -1664
2022-05-16 17:10:44 GMT 55.662231 -4.527366 4,225 315 240 -1792
2022-05-16 17:10:42 GMT 55.661812 -4.526711 4,250 315 241 -1856
2022-05-16 17:10:39 GMT 55.658924 -4.521561 4,350 315 241 -1856
2022-05-16 17:10:37 GMT 55.657883 -4.519709 4,375 316 241 -1792
2022-05-16 17:10:36 GMT 55.657112 -4.518299 4,425 316 241 -1792
2022-05-16 17:10:34 GMT 55.654633 -4.513966 4,475 316 241 -1792
2022-05-16 17:10:33 GMT 55.653763 -4.512468 4,550 316 241 -1792
2022-05-16 17:10:30 GMT 55.651058 -4.507742 4,625 316 241 -1792
2022-05-16 17:10:28 GMT 55.650314 -4.506454 4,675 316 241 -1728
2022-05-16 17:10:26 GMT 55.649094 -4.504395 4,700 316 241 -1664
2022-05-16 17:10:25 GMT 55.648270 -4.502980 4,750 316 241 -1600
2022-05-16 17:10:23 GMT 55.646591 -4.500017 4,775 316 242 -1536
2022-05-16 17:10:21 GMT 55.642914 -4.493658 4,875 316 245 -1088
2022-05-16 17:10:19 GMT 55.642914 -4.493658 4,875 316 245 -1088
2022-05-16 17:10:17 GMT 55.640442 -4.489330 4,925 316 249 -768
2022-05-16 17:10:15 GMT 55.639561 -4.487743 4,925 316 249 -768
2022-05-16 17:10:14 GMT 55.637791 -4.484653 4,975 316 251 -640
2022-05-16 17:10:12 GMT 55.636955 -4.483109 4,975 315 251 -448
2022-05-16 17:10:11 GMT 55.635178 -4.480008 4,975 315 253 -320
2022-05-16 17:10:09 GMT 55.634720 -4.479246 5,000 315 253 -320
2022-05-16 17:10:08 GMT 55.633759 -4.477595 5,000 315 253 -256
2022-05-16 17:10:05 GMT 55.631786 -4.474096 5,000 315 254 -256
2022-05-16 17:10:03 GMT 55.629135 -4.469355 5,025 316 255 0
2022-05-16 17:10:01 GMT 55.628017 -4.467402 5,025 316 255 0
2022-05-16 17:10:00 GMT 55.626945 -4.465513 5,025 316 255 0
2022-05-16 17:09:58 GMT 55.625244 -4.462530 5,025 316 255 0
2022-05-16 17:09:57 GMT 55.624336 -4.460964 5,025 316 255 0
2022-05-16 17:09:55 GMT 55.622726 -4.458036 5,025 316 254 -64
2022-05-16 17:09:54 GMT 55.622196 -4.457188 5,025 316 253 -64
2022-05-16 17:09:52 GMT 55.620209 -4.453624 5,025 316 253 -64
2022-05-16 17:09:51 GMT 55.618519 -4.450750 5,050 315 253 -128
2022-05-16 17:09:49 GMT 55.617691 -4.449213 5,050 315 253 -128
2022-05-16 17:09:42 GMT 55.612656 -4.440391 5,075 316 250 -192
2022-05-16 17:09:39 GMT 55.610001 -4.435730 5,075 316 249 -256
2022-05-16 17:09:35 GMT 55.606705 -4.430070 5,100 316 248 -448
2022-05-16 17:09:32 GMT 55.604645 -4.426460 5,125 316 250 -1024
2022-05-16 17:09:29 GMT 55.601349 -4.420665 5,150 316 251 -1088
2022-05-16 17:09:25 GMT 55.598557 -4.415838 5,300 316 251 -1216
2022-05-16 17:09:21 GMT 55.595673 -4.410761 5,300 316 251 -1280
2022-05-16 17:09:19 GMT 55.593891 -4.407749 5,325 316 251 -1280
2022-05-16 17:09:12 GMT 55.587982 -4.397535 5,575 316 251 -1344
2022-05-16 17:09:09 GMT 55.583790 -4.390240 5,600 316 251 -1344
2022-05-16 17:09:03 GMT 55.581043 -4.385519 5,650 316 251 -1344
2022-05-16 17:09:01 GMT 55.576763 -4.377966 5,800 316 251 -1216
2022-05-16 17:08:58 GMT 55.575504 -4.375906 5,800 316 251 -1216
2022-05-16 17:08:57 GMT 55.575504 -4.375906 5,825 316 251 -1152
2022-05-16 17:08:55 GMT 55.573792 -4.372892 5,850 316 251 -1088
2022-05-16 17:08:53 GMT 55.571316 -4.368525 5,900 316 251 -960
2022-05-16 17:08:51 GMT 55.570450 -4.367065 5,925 316 252 -896
2022-05-16 17:08:50 GMT 55.568710 -4.363986 5,975 316 253 -768
2022-05-16 17:08:47 GMT 55.566559 -4.360241 5,975 316 253 -768
2022-05-16 17:08:46 GMT 55.565781 -4.358909 6,000 316 254 -512
2022-05-16 17:08:43 GMT 55.563259 -4.354534 6,025 316 257 -256
2022-05-16 17:08:41 GMT 55.561615 -4.351668 6,025 316 258 -64
2022-05-16 17:08:38 GMT 55.559818 -4.348526 6,025 316 260 -64
2022-05-16 17:08:36 GMT 55.558048 -4.345436 6,025 316 263 -64
2022-05-16 17:08:34 GMT 55.556351 -4.342429 6,025 316 267 -64
2022-05-16 17:08:32 GMT 55.554649 -4.339428 6,025 316 267 -64
2022-05-16 17:08:31 GMT 55.552368 -4.335521 6,025 316 270 -192
2022-05-16 17:08:28 GMT 55.551483 -4.333935 6,025 316 270 -192
2022-05-16 17:08:27 GMT 55.550217 -4.331693 6,050 316 272 -64
2022-05-16 17:08:26 GMT 55.549297 -4.330072 6,050 316 272 -64
2022-05-16 17:08:24 GMT 55.547295 -4.326553 6,050 315 275 0
2022-05-16 17:08:21 GMT 55.543987 -4.320717 6,050 315 280 0
2022-05-16 17:08:19 GMT 55.543121 -4.319208 6,050 315 280 0
2022-05-16 17:08:18 GMT 55.542252 -4.317627 6,050 315 282 0
2022-05-16 17:08:16 GMT 55.540310 -4.314194 6,050 315 287 0
2022-05-16 17:08:14 GMT 55.537983 -4.310074 6,050 315 288 0
2022-05-16 17:08:11 GMT 55.535378 -4.305439 6,050 315 292 0
2022-05-16 17:08:08 GMT 55.531311 -4.298234 6,050 315 294 64
2022-05-16 17:08:07 GMT 55.530350 -4.296598 6,050 315 297 128
2022-05-16 17:08:04 GMT 55.529324 -4.294710 6,025 315 299 128
2022-05-16 17:08:03 GMT 55.526825 -4.290328 6,025 315 303 128
2022-05-16 17:08:00 GMT 55.525227 -4.287415 6,025 315 304 128
2022-05-16 17:07:59 GMT 55.521286 -4.280506 6,025 315 311 0
2022-05-16 17:07:57 GMT 55.521286 -4.280506 6,025 315 311 0
2022-05-16 17:07:55 GMT 55.517303 -4.273432 6,025 315 314 -192
2022-05-16 17:07:53 GMT 55.517303 -4.273432 6,025 315 318 -448
2022-05-16 17:07:48 GMT 55.512657 -4.265184 6,100 315 321 -576
2022-05-16 17:07:44 GMT 55.508144 -4.257202 6,125 315 324 -832
2022-05-16 17:07:43 GMT 55.507072 -4.255314 6,125 315 325 -960
2022-05-16 17:07:41 GMT 55.505119 -4.251795 6,175 315 327 -1088
2022-05-16 17:07:39 GMT 55.502743 -4.247589 6,200 315 327 -1216
2022-05-16 17:07:37 GMT 55.500744 -4.244070 6,250 315 329 -1408
2022-05-16 17:07:36 GMT 55.498692 -4.240465 6,300 315 329 -1536
2022-05-16 17:07:33 GMT 55.496181 -4.236002 6,350 316 330 -1728
2022-05-16 17:07:31 GMT 55.494083 -4.232311 6,425 316 330 -1920
2022-05-16 17:07:30 GMT 55.489525 -4.224415 6,550 316 331 -1984
2022-05-16 17:07:27 GMT 55.489525 -4.224415 6,550 316 331 -1984
2022-05-16 17:07:26 GMT 55.488453 -4.222527 6,575 316 332 -1984
2022-05-16 17:07:24 GMT 55.484543 -4.215746 6,800 316 333 -2048
2022-05-16 17:07:19 GMT 55.481644 -4.210677 6,800 316 333 -2048
2022-05-16 17:07:18 GMT 55.480724 -4.209051 6,825 316 333 -2048
2022-05-16 17:07:17 GMT 55.478394 -4.205017 6,900 316 333 -2048
2022-05-16 17:07:14 GMT 55.475605 -4.200211 6,950 316 333 -2048
2022-05-16 17:07:12 GMT 55.473907 -4.197193 7,025 316 334 -1984
2022-05-16 17:07:11 GMT 55.472065 -4.194031 7,075 316 334 -1984
2022-05-16 17:07:09 GMT 55.470428 -4.191118 7,125 316 334 -2048
2022-05-16 17:07:08 GMT 55.468201 -4.187250 7,200 315 335 -1984
2022-05-16 17:07:06 GMT 55.467133 -4.185362 7,225 315 335 -1920
2022-05-16 17:07:05 GMT 55.464981 -4.181546 7,300 316 335 -1920
2022-05-16 17:07:03 GMT 55.461685 -4.175720 7,375 315 336 -1856
2022-05-16 17:07:01 GMT 55.461685 -4.175720 7,400 315 336 -1920
2022-05-16 17:06:59 GMT 55.459534 -4.171975 7,475 315 336 -1920
2022-05-16 17:06:57 GMT 55.457401 -4.168282 7,500 315 336 -1920
2022-05-16 17:06:56 GMT 55.456375 -4.166482 7,525 315 337 -1984
2022-05-16 17:06:54 GMT 55.453949 -4.162071 7,600 315 337 -1920
2022-05-16 17:06:51 GMT 55.446507 -4.149055 7,800 315 337 -1728
2022-05-16 17:06:48 GMT 55.446507 -4.149055 7,825 315 337 -1600
2022-05-16 17:06:46 GMT 55.444740 -4.145880 7,850 316 338 -1408
2022-05-16 17:06:43 GMT 55.440674 -4.138776 7,925 316 340 -1024
2022-05-16 17:06:40 GMT 55.437710 -4.133689 7,975 316 340 -640
2022-05-16 17:06:38 GMT 55.436646 -4.131829 7,975 316 340 -576
2022-05-16 17:06:37 GMT 55.433659 -4.126698 8,000 316 342 -256
2022-05-16 17:06:35 GMT 55.431099 -4.122287 8,025 316 343 -192
2022-05-16 17:06:31 GMT 55.424767 -4.111217 8,050 316 345 -640
2022-05-16 17:06:28 GMT 55.424767 -4.111217 8,050 316 345 -640
2022-05-16 17:06:26 GMT 55.420212 -4.103394 8,100 316 345 -832
2022-05-16 17:06:24 GMT 55.420212 -4.103394 8,100 316 345 -832
2022-05-16 17:06:19 GMT 55.414490 -4.093377 8,175 316 345 -1216
2022-05-16 17:06:18 GMT 55.412933 -4.090711 8,225 316 346 -1408
2022-05-16 17:06:16 GMT 55.410919 -4.087156 8,250 316 347 -1600
2022-05-16 17:06:15 GMT 55.409733 -4.085166 8,275 316 347 -1600
2022-05-16 17:06:13 GMT 55.407543 -4.081421 8,325 316 347 -1792
2022-05-16 17:06:11 GMT 55.404938 -4.076843 8,400 316 348 -1920
2022-05-16 17:06:09 GMT 55.403137 -4.073747 8,450 316 348 -2112
2022-05-16 17:06:07 GMT 55.397861 -4.064692 8,625 316 348 -2368
2022-05-16 17:06:05 GMT 55.397861 -4.064692 8,625 316 348 -2432
2022-05-16 17:06:03 GMT 55.395950 -4.061387 8,700 316 348 -2432
2022-05-16 17:06:02 GMT 55.393616 -4.057429 8,775 316 347 -2496
2022-05-16 17:06:00 GMT 55.392609 -4.055651 8,825 316 347 -2560
2022-05-16 17:05:58 GMT 55.389999 -4.051208 8,925 316 348 -2496
2022-05-16 17:05:57 GMT 55.388783 -4.049128 8,950 316 348 -2496
2022-05-16 17:05:55 GMT 55.386314 -4.044966 9,050 316 347 -2368
2022-05-16 17:05:54 GMT 55.385193 -4.043050 9,075 316 347 -2304
2022-05-16 17:05:53 GMT 55.384186 -4.041353 9,125 316 348 -2240
2022-05-16 17:05:52 GMT 55.380451 -4.034895 9,225 316 348 -2176
2022-05-16 17:05:50 GMT 55.380451 -4.034895 9,225 316 348 -2176
2022-05-16 17:05:48 GMT 55.378647 -4.031821 9,300 317 348 -2240
2022-05-16 17:05:47 GMT 55.377548 -4.030044 9,325 317 348 -2304
2022-05-16 17:05:46 GMT 55.373566 -4.023258 9,425 317 348 -2432
2022-05-16 17:05:44 GMT 55.373566 -4.023258 9,475 317 347 -2432
2022-05-16 17:05:42 GMT 55.371323 -4.019542 9,550 317 347 -2432
2022-05-16 17:05:40 GMT 55.367790 -4.013505 9,675 317 348 -2304
2022-05-16 17:05:38 GMT 55.366673 -4.011591 9,700 317 348 -2304
2022-05-16 17:05:36 GMT 55.364670 -4.008262 9,775 317 348 -2176
2022-05-16 17:05:35 GMT 55.363083 -4.005567 9,825 317 348 -2048
2022-05-16 17:05:33 GMT 55.360977 -4.002012 9,875 317 350 -1920
2022-05-16 17:05:32 GMT 55.358852 -3.998441 9,925 317 350 -1792
2022-05-16 17:05:29 GMT 55.354980 -3.991834 10,025 316 351 -1664
2022-05-16 17:05:27 GMT 55.353729 -3.989785 10,050 316 351 -1664
2022-05-16 17:05:24 GMT 55.350330 -3.983959 10,125 316 352 -1792
2022-05-16 17:05:22 GMT 55.348251 -3.980363 10,200 316 352 -1856
2022-05-16 17:05:20 GMT 55.346001 -3.976551 10,250 316 353 -1984
2022-05-16 17:05:17 GMT 55.342419 -3.970392 10,350 316 354 -2176
2022-05-16 17:05:16 GMT 55.338913 -3.964368 10,450 316 354 -2304
2022-05-16 17:05:14 GMT 55.338913 -3.964368 10,475 316 354 -2304
2022-05-16 17:05:12 GMT 55.336349 -3.960006 10,550 316 354 -2304
2022-05-16 17:05:09 GMT 55.334366 -3.956576 10,675 316 354 -2304
2022-05-16 17:05:08 GMT 55.330456 -3.949918 10,750 316 354 -2368
2022-05-16 17:05:06 GMT 55.328686 -3.946922 11,075 316 354 -2496
2022-05-16 17:05:05 GMT 55.328686 -3.946922 10,800 316 354 -2752
2022-05-16 17:05:04 GMT 55.327560 -3.944980 10,850 316 354 -2752
2022-05-16 17:05:03 GMT 55.324402 -3.939487 10,975 316 354 -2816
2022-05-16 17:05:00 GMT 55.323715 -3.938437 11,000 316 354 -2880
2022-05-16 17:04:59 GMT 55.321930 -3.935367 11,075 316 353 -2944
2022-05-16 17:04:57 GMT 55.319366 -3.931005 11,200 317 352 -2944
2022-05-16 17:04:55 GMT 55.317093 -3.927113 11,275 316 352 -3008
2022-05-16 17:04:54 GMT 55.316025 -3.925350 11,325 317 351 -3136
2022-05-16 17:04:52 GMT 55.313694 -3.921370 11,450 316 350 -3200
2022-05-16 17:04:51 GMT 55.312065 -3.918623 11,525 316 349 -3328
2022-05-16 17:04:49 GMT 55.310028 -3.915172 11,625 316 348 -3328
2022-05-16 17:04:46 GMT 55.306366 -3.908952 11,800 316 346 -3392
2022-05-16 17:04:44 GMT 55.304031 -3.904913 11,900 316 345 -3328
2022-05-16 17:04:43 GMT 55.303127 -3.903392 11,950 317 344 -3264
2022-05-16 17:04:41 GMT 55.300323 -3.898692 12,100 316 343 -3200
2022-05-16 17:04:40 GMT 55.299362 -3.897077 12,125 316 343 -3072
2022-05-16 17:04:37 GMT 55.295837 -3.891099 12,275 316 342 -2880
2022-05-16 17:04:35 GMT 55.293911 -3.887828 12,350 316 342 -2560
2022-05-16 17:04:34 GMT 55.292770 -3.885929 12,400 316 342 -2432
2022-05-16 17:04:32 GMT 55.290573 -3.882132 12,475 316 342 -1984
2022-05-16 17:04:30 GMT 55.287827 -3.877447 12,550 316 342 -1536
2022-05-16 17:04:28 GMT 55.285583 -3.873731 12,600 316 343 -1472
2022-05-16 17:04:27 GMT 55.284393 -3.871631 12,625 316 343 -1472
2022-05-16 17:04:26 GMT 55.282104 -3.867753 12,675 316 345 -1536
2022-05-16 17:04:24 GMT 55.281063 -3.866022 12,700 316 345 -1536
2022-05-16 17:04:22 GMT 55.277893 -3.860644 12,750 316 345 -1600
2022-05-16 17:04:21 GMT 55.277893 -3.860644 12,775 316 345 -1600
2022-05-16 17:04:20 GMT 55.275475 -3.856534 12,825 316 345 -1600
2022-05-16 17:04:17 GMT 55.271751 -3.850209 12,900 316 346 -1600
2022-05-16 17:04:15 GMT 55.270725 -3.848461 12,925 316 346 -1664
2022-05-16 17:04:14 GMT 55.269424 -3.846265 12,975 316 347 -1728
2022-05-16 17:04:13 GMT 55.267048 -3.842219 13,025 316 347 -1792
2022-05-16 17:04:11 GMT 55.266357 -3.841095 13,050 316 347 -1792
2022-05-16 17:04:10 GMT 55.263557 -3.836309 13,125 316 347 -1728
2022-05-16 17:04:08 GMT 55.262924 -3.835198 13,125 316 347 -1728
2022-05-16 17:04:07 GMT 55.261642 -3.833017 13,175 316 347 -1728
2022-05-16 17:04:04 GMT 55.258904 -3.828402 13,225 316 347 -1728
2022-05-16 17:04:02 GMT 55.256622 -3.824574 13,300 316 348 -1728
2022-05-16 17:04:00 GMT 55.253906 -3.819930 13,375 316 349 -1728
2022-05-16 17:03:59 GMT 55.251686 -3.816168 13,425 316 349 -1728
2022-05-16 17:03:57 GMT 55.250477 -3.814087 13,450 316 349 -1728
2022-05-16 17:03:56 GMT 55.248093 -3.810075 13,525 316 349 -1728
2022-05-16 17:03:54 GMT 55.247086 -3.808298 13,525 316 349 -1728
2022-05-16 17:03:52 GMT 55.244614 -3.804178 13,600 316 350 -1728
2022-05-16 17:03:51 GMT 55.243607 -3.802400 13,625 316 350 -1792
2022-05-16 17:03:49 GMT 55.241028 -3.798107 13,675 316 350 -1792
2022-05-16 17:03:48 GMT 55.239910 -3.796193 13,725 316 350 -1792
2022-05-16 17:03:47 GMT 55.238049 -3.793030 13,825 316 351 -1792
2022-05-16 17:03:44 GMT 55.235767 -3.789118 13,825 316 351 -1792
2022-05-16 17:03:43 GMT 55.234417 -3.786871 13,850 316 351 -1792
2022-05-16 17:03:41 GMT 55.232254 -3.783174 13,900 316 352 -1664
2022-05-16 17:03:40 GMT 55.231155 -3.781316 13,975 316 352 -1664
2022-05-16 17:03:39 GMT 55.230057 -3.779378 13,950 316 352 -1600
2022-05-16 17:03:38 GMT 55.227676 -3.775339 14,125 316 354 -1600
2022-05-16 17:03:35 GMT 55.224747 -3.770330 14,125 316 354 -1728
2022-05-16 17:03:33 GMT 55.223011 -3.767395 14,125 316 354 -1728
2022-05-16 17:03:32 GMT 55.221848 -3.765398 14,150 316 354 -1728
2022-05-16 17:03:30 GMT 55.217892 -3.758739 14,250 316 355 -1728
2022-05-16 17:03:28 GMT 55.216679 -3.756658 14,350 317 355 -1664
2022-05-16 17:03:26 GMT 55.213577 -3.751427 14,350 317 355 -1600
2022-05-16 17:03:24 GMT 55.211792 -3.748419 14,400 316 356 -1600
2022-05-16 17:03:23 GMT 55.210510 -3.746257 14,425 316 356 -1600
2022-05-16 17:03:21 GMT 55.208176 -3.742299 14,475 317 357 -1600
2022-05-16 17:03:19 GMT 55.205692 -3.738098 14,525 317 357 -1600
2022-05-16 17:03:18 GMT 55.204529 -3.736184 14,550 317 357 -1600
2022-05-16 17:03:17 GMT 55.202065 -3.731939 14,600 317 357 -1600
2022-05-16 17:03:15 GMT 55.200897 -3.730108 14,625 317 358 -1600
2022-05-16 17:03:13 GMT 55.198570 -3.726113 14,700 317 359 -1664
2022-05-16 17:03:11 GMT 55.193390 -3.717418 14,775 317 359 -1664
2022-05-16 17:03:09 GMT 55.193390 -3.717418 14,800 317 359 -1664
2022-05-16 17:03:08 GMT 55.191330 -3.713944 14,850 317 360 -1792
2022-05-16 17:03:06 GMT 55.190285 -3.712214 14,875 317 360 -1792
2022-05-16 17:03:05 GMT 55.186844 -3.706432 14,950 317 360 -1792
2022-05-16 17:03:02 GMT 55.185791 -3.704654 14,975 317 360 -1792
2022-05-16 17:03:01 GMT 55.184093 -3.701810 15,025 317 360 -1792
2022-05-16 17:02:59 GMT 55.181854 -3.698111 15,125 317 360 -1792
2022-05-16 17:02:58 GMT 55.179440 -3.694070 15,175 317 360 -1856
2022-05-16 17:02:56 GMT 55.178284 -3.692053 15,200 317 362 -1856
2022-05-16 17:02:55 GMT 55.175945 -3.688160 15,225 317 362 -1856
2022-05-16 17:02:53 GMT 55.174690 -3.686080 15,300 317 362 -1856
2022-05-16 17:02:52 GMT 55.172131 -3.681668 15,375 317 362 -1920
2022-05-16 17:02:50 GMT 55.171059 -3.679921 15,375 317 362 -1920
2022-05-16 17:02:48 GMT 55.168591 -3.675842 15,450 317 362 -1984
2022-05-16 17:02:47 GMT 55.167473 -3.673928 15,500 317 362 -1984
2022-05-16 17:02:46 GMT 55.164963 -3.669676 15,575 317 362 -2048
2022-05-16 17:02:44 GMT 55.163635 -3.667495 15,600 317 362 -2048
2022-05-16 17:02:42 GMT 55.161438 -3.663698 15,650 317 362 -2048
2022-05-16 17:02:41 GMT 55.160259 -3.661776 15,700 317 362 -2048
2022-05-16 17:02:39 GMT 55.157776 -3.657559 15,750 317 362 -2048
2022-05-16 17:02:38 GMT 55.156532 -3.655534 15,775 317 362 -1984
2022-05-16 17:02:37 GMT 55.155323 -3.653453 15,825 317 362 -1984
2022-05-16 17:02:35 GMT 55.152718 -3.649126 15,875 317 362 -1920
2022-05-16 17:02:34 GMT 55.151600 -3.647211 15,900 317 362 -1856
2022-05-16 17:02:32 GMT 55.148209 -3.641564 16,000 317 363 -1792
2022-05-16 17:02:29 GMT 55.143265 -3.633324 16,100 317 363 -1664
2022-05-16 17:02:27 GMT 55.143265 -3.633324 16,125 317 363 -1664
2022-05-16 17:02:24 GMT 55.139099 -3.626296 16,200 317 364 -1600
2022-05-16 17:02:22 GMT 55.136810 -3.622499 16,250 316 365 -1536
2022-05-16 17:02:21 GMT 55.135666 -3.620480 16,275 317 366 -1472
2022-05-16 17:02:20 GMT 55.134430 -3.618460 16,300 317 366 -1472
2022-05-16 17:02:19 GMT 55.132000 -3.614335 16,350 317 367 -1408
2022-05-16 17:02:16 GMT 55.127197 -3.606262 16,425 317 368 -1536
2022-05-16 17:02:14 GMT 55.127197 -3.606262 16,450 317 368 -1664
2022-05-16 17:02:12 GMT 55.123901 -3.600769 16,525 317 368 -1728
2022-05-16 17:02:10 GMT 55.121338 -3.596488 16,575 317 369 -1920
2022-05-16 17:02:08 GMT 55.118866 -3.592287 16,650 317 369 -1920
2022-05-16 17:02:06 GMT 55.117722 -3.590429 16,675 317 369 -1984
2022-05-16 17:02:04 GMT 55.113522 -3.583374 16,800 317 369 -2048
2022-05-16 17:02:02 GMT 55.111145 -3.579379 16,875 317 369 -2112
2022-05-16 17:02:00 GMT 55.109749 -3.577132 16,900 317 369 -2112
2022-05-16 17:01:58 GMT 55.107376 -3.573137 16,975 317 369 -2176
2022-05-16 17:01:57 GMT 55.106117 -3.571056 17,000 317 369 -2176
2022-05-16 17:01:56 GMT 55.103790 -3.567144 17,075 317 369 -2176
2022-05-16 17:01:53 GMT 55.102112 -3.564336 17,125 317 369 -2240
2022-05-16 17:01:52 GMT 55.100098 -3.560863 17,200 316 369 -2240
2022-05-16 17:01:51 GMT 55.098816 -3.558762 17,225 316 369 -2176
2022-05-16 17:01:49 GMT 55.096390 -3.554643 17,300 316 369 -2112
2022-05-16 17:01:48 GMT 55.095062 -3.552462 17,350 316 369 -2112
2022-05-16 17:01:47 GMT 55.093781 -3.550249 17,375 316 369 -2048
2022-05-16 17:01:45 GMT 55.091400 -3.546241 17,450 316 369 -1920
2022-05-16 17:01:44 GMT 55.090073 -3.544060 17,475 317 370 -1856
2022-05-16 17:01:42 GMT 55.087738 -3.540102 17,525 317 370 -1792
2022-05-16 17:01:41 GMT 55.085262 -3.536016 17,600 317 370 -1728
2022-05-16 17:01:39 GMT 55.084007 -3.533852 17,625 317 370 -1728
2022-05-16 17:01:36 GMT 55.080368 -3.527742 17,725 317 372 -1728
2022-05-16 17:01:35 GMT 55.077850 -3.523542 17,775 317 372 -1728
2022-05-16 17:01:33 GMT 55.075195 -3.519099 17,825 317 372 -1728
2022-05-16 17:01:31 GMT 55.073952 -3.516957 17,850 316 372 -1728
2022-05-16 17:01:30 GMT 55.072678 -3.514817 17,875 316 372 -1728
2022-05-16 17:01:28 GMT 55.070229 -3.510714 17,950 316 373 -1728
2022-05-16 17:01:27 GMT 55.068008 -3.506981 18,025 316 374 -1664
2022-05-16 17:01:24 GMT 55.062920 -3.498396 18,075 317 374 -1600
2022-05-16 17:01:22 GMT 55.061874 -3.496641 18,125 317 374 -1600
2022-05-16 17:01:20 GMT 55.060822 -3.494864 18,175 317 375 -1664
2022-05-16 17:01:19 GMT 55.058395 -3.490825 18,225 317 376 -1728
2022-05-16 17:01:17 GMT 55.057098 -3.488659 18,225 317 376 -1728
2022-05-16 17:01:14 GMT 55.050385 -3.477415 18,375 317 377 -1728
2022-05-16 17:01:12 GMT 55.050385 -3.477415 18,400 317 377 -1664
2022-05-16 17:01:11 GMT 55.049232 -3.475508 18,425 317 377 -1664
2022-05-16 17:01:09 GMT 55.046768 -3.471437 18,475 317 379 -1600
2022-05-16 17:01:08 GMT 55.045395 -3.469175 18,500 317 379 -1536
2022-05-16 17:01:06 GMT 55.042854 -3.464938 18,550 317 379 -1536
2022-05-16 17:01:05 GMT 55.041645 -3.462941 18,575 317 380 -1536
2022-05-16 17:01:03 GMT 55.039307 -3.459078 18,625 317 381 -1536
2022-05-16 17:01:02 GMT 55.036652 -3.454635 18,675 317 381 -1600
2022-05-16 17:00:59 GMT 55.034149 -3.450456 18,725 317 381 -1664
2022-05-16 17:00:57 GMT 55.031708 -3.446476 18,775 317 383 -1728
2022-05-16 17:00:54 GMT 55.025536 -3.436307 18,900 317 384 -1728
2022-05-16 17:00:52 GMT 55.025536 -3.436307 19,000 317 384 -1792
2022-05-16 17:00:50 GMT 55.022919 -3.431854 19,000 317 384 -1792
2022-05-16 17:00:48 GMT 55.020370 -3.427651 19,025 317 384 -1792
2022-05-16 17:00:46 GMT 55.017380 -3.422645 19,125 317 385 -1856
2022-05-16 17:00:45 GMT 55.014862 -3.418444 19,175 317 385 -1920
2022-05-16 17:00:43 GMT 55.013672 -3.416506 19,200 317 386 -1984
2022-05-16 17:00:41 GMT 55.011063 -3.412143 19,275 317 386 -1984
2022-05-16 17:00:40 GMT 55.009827 -3.410043 19,300 317 386 -2048
2022-05-16 17:00:39 GMT 55.008591 -3.407926 19,350 317 386 -2048
2022-05-16 17:00:37 GMT 55.006729 -3.404846 19,400 317 386 -2048
2022-05-16 17:00:36 GMT 55.004791 -3.401561 19,450 317 386 -2112
2022-05-16 17:00:34 GMT 55.002731 -3.398168 19,525 317 386 -2176
2022-05-16 17:00:33 GMT 55.001328 -3.395857 19,550 317 386 -2176
2022-05-16 17:00:32 GMT 54.998817 -3.391696 19,600 317 386 -2112
2022-05-16 17:00:30 GMT 54.997467 -3.389363 19,725 317 386 -2112
2022-05-16 17:00:28 GMT 54.994438 -3.384372 19,725 317 386 -2112
2022-05-16 17:00:26 GMT 54.992386 -3.380962 19,775 317 386 -2112
2022-05-16 17:00:24 GMT 54.989731 -3.376519 19,875 317 386 -2112
2022-05-16 17:00:23 GMT 54.988449 -3.374418 19,875 317 386 -2048
2022-05-16 17:00:21 GMT 54.985657 -3.369733 19,950 317 386 -2048
2022-05-16 17:00:20 GMT 54.984375 -3.367713 20,000 317 387 -1984
2022-05-16 17:00:18 GMT 54.981869 -3.363564 20,050 317 387 -1920
2022-05-16 17:00:17 GMT 54.980530 -3.361251 20,100 317 387 -1920
2022-05-16 17:00:15 GMT 54.977875 -3.356889 20,150 317 388 -1856
2022-05-16 17:00:13 GMT 54.975075 -3.352245 20,225 317 389 -1856
2022-05-16 17:00:11 GMT 54.972565 -3.348083 20,275 317 389 -1728
2022-05-16 17:00:10 GMT 54.971302 -3.346003 20,300 317 390 -1664
2022-05-16 17:00:08 GMT 54.969254 -3.342590 20,350 317 390 -1600
2022-05-16 17:00:07 GMT 54.967850 -3.340248 20,375 317 390 -1600
2022-05-16 17:00:06 GMT 54.965252 -3.335932 20,425 317 391 -1536
2022-05-16 17:00:04 GMT 54.963902 -3.333685 20,450 317 392 -1536
2022-05-16 17:00:03 GMT 54.961166 -3.329181 20,525 317 392 -1600
2022-05-16 17:00:01 GMT 54.958328 -3.324414 20,575 317 393 -1792
2022-05-16 16:59:59 GMT 54.957058 -3.322282 20,600 317 393 -1792
2022-05-16 16:59:57 GMT 54.954544 -3.318038 20,675 317 394 -1920
2022-05-16 16:59:55 GMT 54.951706 -3.313293 20,750 317 394 -2048
2022-05-16 16:59:54 GMT 54.950493 -3.311213 20,850 317 394 -2112
2022-05-16 16:59:52 GMT 54.947701 -3.306552 20,850 317 395 -2176
2022-05-16 16:59:50 GMT 54.944954 -3.302057 20,925 317 394 -2304
2022-05-16 16:59:49 GMT 54.943649 -3.299810 20,950 317 394 -2304
2022-05-16 16:59:47 GMT 54.941044 -3.295399 21,025 317 393 -2560
2022-05-16 16:59:46 GMT 54.939228 -3.292403 21,100 317 393 -2560
2022-05-16 16:59:44 GMT 54.937225 -3.289113 21,150 317 393 -2688
2022-05-16 16:59:43 GMT 54.935440 -3.286205 21,225 317 393 -2688
2022-05-16 16:59:41 GMT 54.933315 -3.282665 21,400 317 393 -2752
2022-05-16 16:59:39 GMT 54.929081 -3.275757 21,450 317 392 -2752
2022-05-16 16:59:35 GMT 54.925461 -3.269725 21,575 317 392 -2688
2022-05-16 16:59:34 GMT 54.924240 -3.267767 21,625 317 391 -2752
2022-05-16 16:59:32 GMT 54.921616 -3.263424 21,700 317 391 -2752
2022-05-16 16:59:31 GMT 54.920280 -3.261192 21,750 317 390 -2688
2022-05-16 16:59:29 GMT 54.917633 -3.256800 21,850 317 390 -2688
2022-05-16 16:59:28 GMT 54.916512 -3.254949 21,900 317 390 -2624
2022-05-16 16:59:27 GMT 54.913765 -3.250455 21,975 317 390 -2304
2022-05-16 16:59:25 GMT 54.911087 -3.245975 22,050 317 389 -2112
2022-05-16 16:59:23 GMT 54.909943 -3.244117 22,075 317 389 -2048
2022-05-16 16:59:20 GMT 54.906132 -3.237804 22,175 317 390 -1984
2022-05-16 16:59:18 GMT 54.903259 -3.233131 22,225 317 390 -2048
2022-05-16 16:59:16 GMT 54.900589 -3.228732 22,300 317 390 -2176
2022-05-16 16:59:15 GMT 54.899460 -3.226749 22,400 317 390 -2176
2022-05-16 16:59:13 GMT 54.897053 -3.222823 22,400 317 390 -2176
2022-05-16 16:59:12 GMT 54.895660 -3.220529 22,450 317 391 -2112
2022-05-16 16:59:09 GMT 54.890022 -3.211254 22,550 317 391 -2048
2022-05-16 16:59:07 GMT 54.888657 -3.208977 22,625 317 391 -2048
2022-05-16 16:59:05 GMT 54.886185 -3.204938 22,700 317 391 -2048
2022-05-16 16:59:03 GMT 54.883804 -3.200980 22,750 317 391 -1920
2022-05-16 16:59:01 GMT 54.881180 -3.196689 22,825 317 392 -1856
2022-05-16 16:58:58 GMT 54.877213 -3.190155 22,925 317 393 -1856
2022-05-16 16:58:57 GMT 54.874569 -3.185785 22,975 317 394 -1792
2022-05-16 16:58:54 GMT 54.871902 -3.181431 23,025 317 394 -1792
2022-05-16 16:58:53 GMT 54.870026 -3.178280 23,100 317 394 -1728
2022-05-16 16:58:51 GMT 54.868011 -3.174968 23,125 317 394 -1728
2022-05-16 16:58:50 GMT 54.866592 -3.172625 23,175 317 395 -1728
2022-05-16 16:58:49 GMT 54.863800 -3.168021 23,225 317 396 -1792
2022-05-16 16:58:47 GMT 54.862564 -3.166001 23,250 317 396 -1728
2022-05-16 16:58:46 GMT 54.859390 -3.160733 23,300 317 396 -1728
2022-05-16 16:58:43 GMT 54.857250 -3.157321 23,350 317 396 -1792
2022-05-16 16:58:41 GMT 54.854324 -3.152430 23,425 317 398 -1728
2022-05-16 16:58:39 GMT 54.851757 -3.148166 23,575 317 398 -1664
2022-05-16 16:58:37 GMT 54.849106 -3.143786 23,575 317 399 -1664
2022-05-16 16:58:35 GMT 54.847229 -3.140636 23,575 317 399 -1728
2022-05-16 16:58:34 GMT 54.845123 -3.137162 23,625 317 400 -1920
2022-05-16 16:58:32 GMT 54.842331 -3.132558 23,675 317 400 -1920
2022-05-16 16:58:31 GMT 54.841049 -3.130438 23,725 317 400 -2048
2022-05-16 16:58:30 GMT 54.839493 -3.127872 23,750 317 400 -2240
2022-05-16 16:58:27 GMT 54.835323 -3.120949 23,900 317 400 -2240
2022-05-16 16:58:25 GMT 54.833790 -3.118453 23,925 317 400 -2368
2022-05-16 16:58:24 GMT 54.831848 -3.115351 24,000 317 400 -2368
2022-05-16 16:58:23 GMT 54.828667 -3.110046 24,025 317 400 -2432
2022-05-16 16:58:21 GMT 54.827457 -3.108049 24,100 317 400 -2304
2022-05-16 16:58:18 GMT 54.823502 -3.101640 24,200 317 400 -1984
2022-05-16 16:58:16 GMT 54.820801 -3.097229 24,275 317 400 -1984
2022-05-16 16:58:15 GMT 54.818115 -3.092813 24,350 317 401 -2112
2022-05-16 16:58:12 GMT 54.813721 -3.085623 24,450 317 401 -2304
2022-05-16 16:58:10 GMT 54.812374 -3.083413 24,525 317 401 -2432
2022-05-16 16:58:08 GMT 54.809719 -3.079085 24,575 317 401 -2432
2022-05-16 16:58:06 GMT 54.806992 -3.074637 24,675 317 401 -2432
2022-05-16 16:58:05 GMT 54.803391 -3.068848 24,750 317 401 -2240
2022-05-16 16:58:03 GMT 54.803391 -3.068848 24,775 317 401 -2176
2022-05-16 16:58:01 GMT 54.800179 -3.063687 24,850 317 402 -2048
2022-05-16 16:58:00 GMT 54.798706 -3.061227 24,900 318 401 -1984
2022-05-16 16:57:58 GMT 54.795685 -3.056380 24,950 318 402 -1920
2022-05-16 16:57:56 GMT 54.794312 -3.054199 25,000 318 402 -1856
2022-05-16 16:57:55 GMT 54.790375 -3.047817 25,075 318 403 -1792
2022-05-16 16:57:52 GMT 54.787048 -3.042714 25,100 318 403 -1792
2022-05-16 16:57:51 GMT 54.787048 -3.042714 25,150 319 405 -1728
2022-05-16 16:57:50 GMT 54.784149 -3.038285 25,225 320 405 -1728
2022-05-16 16:57:47 GMT 54.781837 -3.034890 25,250 321 407 -1664
2022-05-16 16:57:46 GMT 54.780487 -3.032954 25,275 321 407 -1664
2022-05-16 16:57:44 GMT 54.777134 -3.028315 25,325 323 408 -1600
2022-05-16 16:57:42 GMT 54.774433 -3.024653 25,375 323 409 -1536
2022-05-16 16:57:40 GMT 54.768494 -3.017120 25,475 326 413 -1344
2022-05-16 16:57:38 GMT 54.768494 -3.017120 25,675 326 413 -1344
2022-05-16 16:57:36 GMT 54.764236 -3.012031 25,525 326 413 -1280
2022-05-16 16:57:34 GMT 54.761959 -3.009338 25,550 327 414 -1280
2022-05-16 16:57:32 GMT 54.755302 -3.002014 25,650 328 416 -1280
2022-05-16 16:57:30 GMT 54.755302 -3.002014 25,675 329 417 -1408
2022-05-16 16:57:28 GMT 54.752182 -2.998768 25,725 331 419 -1920
2022-05-16 16:57:27 GMT 54.748810 -2.995471 25,850 332 420 -2240
2022-05-16 16:57:24 GMT 54.745152 -2.991943 25,850 332 419 -2432
2022-05-16 16:57:23 GMT 54.743244 -2.990112 25,900 332 420 -2624
2022-05-16 16:57:22 GMT 54.737984 -2.985368 25,975 334 419 -3072
2022-05-16 16:57:20 GMT 54.737984 -2.985368 26,050 334 419 -3200
2022-05-16 16:57:19 GMT 54.734676 -2.982538 26,175 334 419 -3264
2022-05-16 16:57:17 GMT 54.733047 -2.981123 26,200 334 418 -3264
2022-05-16 16:57:16 GMT 54.728302 -2.977053 26,350 334 418 -2880
2022-05-16 16:57:13 GMT 54.726334 -2.975275 26,500 334 417 -2688
2022-05-16 16:57:11 GMT 54.722343 -2.971885 26,500 334 417 -2560
2022-05-16 16:57:10 GMT 54.720852 -2.970553 26,550 334 417 -2496
2022-05-16 16:57:09 GMT 54.719055 -2.968974 26,575 334 417 -2432
2022-05-16 16:57:07 GMT 54.715805 -2.966147 26,675 334 416 -2368
2022-05-16 16:57:05 GMT 54.712238 -2.963063 26,725 334 417 -2496
2022-05-16 16:57:03 GMT 54.708939 -2.960169 26,775 334 417 -2496
2022-05-16 16:57:01 GMT 54.705723 -2.957320 26,850 333 416 -2560
2022-05-16 16:57:00 GMT 54.704048 -2.955822 26,925 333 416 -2560
2022-05-16 16:56:59 GMT 54.702393 -2.954353 26,975 333 416 -2432
2022-05-16 16:56:57 GMT 54.698460 -2.950911 27,075 333 416 -2432
2022-05-16 16:56:55 GMT 54.694931 -2.947810 27,225 334 416 -2560
2022-05-16 16:56:53 GMT 54.688267 -2.941922 27,275 334 417 -2560
2022-05-16 16:56:51 GMT 54.686554 -2.940378 27,375 334 416 -2432
2022-05-16 16:56:49 GMT 54.684589 -2.938676 27,425 334 416 -2432
2022-05-16 16:56:47 GMT 54.681282 -2.935847 27,475 334 416 -2304
2022-05-16 16:56:46 GMT 54.677994 -2.932946 27,600 334 416 -2176
2022-05-16 16:56:42 GMT 54.673416 -2.928907 27,650 334 417 -2112
2022-05-16 16:56:41 GMT 54.671646 -2.927357 27,700 334 417 -2112
2022-05-16 16:56:38 GMT 54.666321 -2.922767 27,775 334 418 -2048
2022-05-16 16:56:37 GMT 54.664711 -2.921365 27,825 334 417 -2112
2022-05-16 16:56:35 GMT 54.661964 -2.918951 27,900 334 417 -2368
2022-05-16 16:56:34 GMT 54.659405 -2.916704 27,950 334 418 -2560
2022-05-16 16:56:32 GMT 54.656704 -2.914373 28,000 334 418 -2560
2022-05-16 16:56:30 GMT 54.647205 -2.906050 28,175 333 417 -2368
2022-05-16 16:56:27 GMT 54.647205 -2.906050 28,225 333 417 -2432
2022-05-16 16:56:25 GMT 54.638580 -2.898533 28,350 333 417 -2432
2022-05-16 16:56:22 GMT 54.638580 -2.898533 28,450 333 417 -2368
2022-05-16 16:56:19 GMT 54.629883 -2.890858 28,650 334 418 -2432
2022-05-16 16:56:17 GMT 54.625717 -2.887223 28,675 334 418 -2432
2022-05-16 16:56:15 GMT 54.625717 -2.887223 28,750 334 418 -2304
2022-05-16 16:56:12 GMT 54.619740 -2.881997 28,875 334 419 -2112
2022-05-16 16:56:08 GMT 54.614548 -2.877449 29,000 334 423 -1088
2022-05-16 16:56:05 GMT 54.608871 -2.872521 29,050 334 421 -1472
2022-05-16 16:56:02 GMT 54.603699 -2.868078 29,100 334 422 -1216
2022-05-16 16:56:00 GMT 54.597336 -2.862666 29,150 334 424 -1024
2022-05-16 16:55:58 GMT 54.597336 -2.862666 29,225 334 426 -1024
2022-05-16 16:55:55 GMT 54.591797 -2.857899 29,225 334 427 -1216
2022-05-16 16:55:53 GMT 54.588970 -2.855530 29,250 334 427 -1280
2022-05-16 16:55:51 GMT 54.584408 -2.851618 29,375 334 428 -2304
2022-05-16 16:55:48 GMT 54.577744 -2.845944 29,475 334 428 -2432
2022-05-16 16:55:45 GMT 54.568951 -2.838384 29,625 334 428 -2752
2022-05-16 16:55:42 GMT 54.568951 -2.838384 29,725 334 428 -2880
2022-05-16 16:55:39 GMT 54.563644 -2.833807 29,900 334 427 -2944
2022-05-16 16:55:36 GMT 54.558990 -2.829812 29,975 334 427 -2944
2022-05-16 16:55:34 GMT 54.554352 -2.825748 30,125 334 426 -2560
2022-05-16 16:55:32 GMT 54.550827 -2.822759 30,200 334 427 -2304
2022-05-16 16:55:30 GMT 54.547119 -2.819491 30,400 334 450 0
2022-05-16 16:55:27 GMT 54.542770 -2.815731 30,400 334 427 -2048
2022-05-16 16:55:24 GMT 54.536270 -2.810086 30,475 334 429 -2048
2022-05-16 16:55:21 GMT 54.531525 -2.805925 30,625 334 429 -2112
2022-05-16 16:55:18 GMT 54.524826 -2.800060 30,700 334 429 -2112
2022-05-16 16:55:15 GMT 54.521236 -2.796936 30,850 334 430 -2112
2022-05-16 16:55:12 GMT 54.513462 -2.790111 30,925 334 440 -2496
2022-05-16 16:55:09 GMT 54.510529 -2.787614 31,000 334 431 -2112
2022-05-16 16:55:07 GMT 54.507202 -2.784711 31,075 334 432 -2112
2022-05-16 16:55:04 GMT 54.499916 -2.778376 31,200 334 433 -1984
2022-05-16 16:55:01 GMT 54.497402 -2.776212 31,275 334 434 -1856
2022-05-16 16:54:59 GMT 54.492607 -2.772050 31,325 334 434 -1856
2022-05-16 16:54:56 GMT 54.488186 -2.768222 31,450 334 435 -1792
2022-05-16 16:54:54 GMT 54.479874 -2.761042 31,575 334 438 -1920
2022-05-16 16:54:52 GMT 54.474014 -2.756034 31,575 334 438 -1920
2022-05-16 16:54:49 GMT 54.474014 -2.756034 31,650 334 438 -1984
2022-05-16 16:54:46 GMT 54.469528 -2.752237 31,725 334 439 -2048
2022-05-16 16:54:44 GMT 54.460857 -2.744834 31,825 334 439 -2112
2022-05-16 16:54:42 GMT 54.460857 -2.744834 31,925 334 440 -2368
2022-05-16 16:54:39 GMT 54.450806 -2.736242 32,025 334 440 -2496
2022-05-16 16:54:36 GMT 54.450806 -2.736242 32,125 334 440 -2496
2022-05-16 16:54:34 GMT 54.446640 -2.732688 32,200 334 441 -2368
2022-05-16 16:54:31 GMT 54.442562 -2.729270 32,250 334 441 -2240
2022-05-16 16:54:28 GMT 54.430664 -2.719035 32,475 334 444 -1856
2022-05-16 16:54:25 GMT 54.430664 -2.719035 32,500 334 444 -1856
2022-05-16 16:54:23 GMT 54.427689 -2.716531 32,550 334 444 -1792
2022-05-16 16:54:20 GMT 54.421986 -2.711709 32,675 334 448 -1920
2022-05-16 16:54:17 GMT 54.416656 -2.707241 32,775 334 448 -1920
2022-05-16 16:54:14 GMT 54.409515 -2.701183 32,825 334 449 -1856
2022-05-16 16:54:11 GMT 54.404205 -2.696644 32,925 334 449 -1920
2022-05-16 16:54:08 GMT 54.399078 -2.692216 33,075 334 449 -1856
2022-05-16 16:54:05 GMT 54.393589 -2.687572 33,100 334 450 -1920
2022-05-16 16:54:03 GMT 54.387222 -2.682037 33,200 334 450 -1920
2022-05-16 16:54:01 GMT 54.387222 -2.682037 33,250 334 450 -1920
2022-05-16 16:53:59 GMT 54.382835 -2.678250 33,400 334 450 -1856
2022-05-16 16:53:56 GMT 54.376877 -2.673151 33,400 334 450 -1856
2022-05-16 16:53:53 GMT 54.371246 -2.668346 33,500 334 449 -1856
2022-05-16 16:53:51 GMT 54.366486 -2.664185 33,575 334 449 -1856
2022-05-16 16:53:48 GMT 54.360672 -2.659176 33,650 334 449 -1856
2022-05-16 16:53:45 GMT 54.354218 -2.653602 33,800 334 449 -1856
2022-05-16 16:53:41 GMT 54.350464 -2.650371 33,900 334 449 -1856
2022-05-16 16:53:39 GMT 54.345966 -2.646540 34,000 334 449 -1856
2022-05-16 16:53:37 GMT 54.342453 -2.643504 34,025 334 448 -1856
2022-05-16 16:53:34 GMT 54.335587 -2.637607 34,125 334 449 -1856
2022-05-16 16:53:31 GMT 54.331444 -2.634055 34,175 334 449 -1856
2022-05-16 16:53:28 GMT 54.320923 -2.625067 34,325 334 449 -1856
2022-05-16 16:53:25 GMT 54.320923 -2.625067 34,425 334 449 -1856
2022-05-16 16:53:23 GMT 54.316780 -2.621571 34,400 334 449 -1856
2022-05-16 16:53:21 GMT 54.311192 -2.616744 34,550 334 449 -1856
2022-05-16 16:53:18 GMT 54.307526 -2.613615 34,650 334 449 -1856
2022-05-16 16:53:15 GMT 54.296448 -2.604002 34,700 334 449 -1856
2022-05-16 16:53:13 GMT 54.296448 -2.604002 34,775 334 449 -1856
2022-05-16 16:53:10 GMT 54.292431 -2.600597 34,825 334 449 -1856
2022-05-16 16:53:08 GMT 54.286518 -2.595520 34,925 334 450 -1856
2022-05-16 16:53:05 GMT 54.282890 -2.592441 34,975 334 451 -1856
2022-05-16 16:53:03 GMT 54.279465 -2.589542 35,075 334 450 -1856
2022-05-16 16:53:01 GMT 54.274979 -2.585711 35,075 334 451 -1856
2022-05-16 16:52:58 GMT 54.269394 -2.581002 35,200 334 453 -1856
2022-05-16 16:52:55 GMT 54.264545 -2.576940 35,275 334 453 -1920
2022-05-16 16:52:53 GMT 54.260681 -2.573709 35,325 334 455 -1280
2022-05-16 16:52:51 GMT 54.256725 -2.570316 35,400 334 453 -1792
2022-05-16 16:52:48 GMT 54.249985 -2.564601 35,550 334 454 -1728
2022-05-16 16:52:45 GMT 54.245415 -2.560784 35,550 334 454 -1728
2022-05-16 16:52:43 GMT 54.240509 -2.556676 35,600 334 455 -1600
2022-05-16 16:52:40 GMT 54.233871 -2.551025 35,700 334 455 -1536
2022-05-16 16:52:37 GMT 54.225037 -2.543570 35,800 334 455 -1216
2022-05-16 16:52:34 GMT 54.225037 -2.543570 35,825 334 455 -1024
2022-05-16 16:52:32 GMT 54.217995 -2.537599 35,900 334 455 -832
2022-05-16 16:52:28 GMT 54.213181 -2.533526 35,900 334 454 -768
2022-05-16 16:52:26 GMT 54.208466 -2.529602 35,975 334 453 -384
2022-05-16 16:52:23 GMT 54.196861 -2.519747 35,975 334 452 -192
2022-05-16 16:52:20 GMT 54.196861 -2.519747 35,975 334 452 0
2022-05-16 16:52:17 GMT 54.192215 -2.515791 35,975 334 451 -64
2022-05-16 16:52:14 GMT 54.183826 -2.508599 36,000 334 451 -64
2022-05-16 16:52:12 GMT 54.183826 -2.508599 36,000 334 451 -64
2022-05-16 16:52:10 GMT 54.179260 -2.504726 36,000 334 450 -64
2022-05-16 16:52:07 GMT 54.175076 -2.501167 36,000 334 450 -64
2022-05-16 16:52:05 GMT 54.170559 -2.497289 36,000 334 450 -64
2022-05-16 16:52:03 GMT 54.166489 -2.493896 36,000 334 450 -64
2022-05-16 16:52:00 GMT 54.161621 -2.489696 36,000 334 450 -64
2022-05-16 16:51:58 GMT 54.157711 -2.486384 36,025 334 450 -64
2022-05-16 16:51:55 GMT 54.151245 -2.480870 36,025 334 450 -64
2022-05-16 16:51:53 GMT 54.147560 -2.477740 36,025 334 449 0
2022-05-16 16:51:50 GMT 54.141403 -2.472552 36,000 334 449 64
2022-05-16 16:51:47 GMT 54.137650 -2.469413 36,000 334 449 0
2022-05-16 16:51:45 GMT 54.132851 -2.465300 36,000 334 449 0
2022-05-16 16:51:43 GMT 54.129181 -2.462193 36,000 334 449 0
2022-05-16 16:51:41 GMT 54.127079 -2.460453 36,000 334 449 0
2022-05-16 16:51:39 GMT 54.122131 -2.456229 36,000 334 449 -64
2022-05-16 16:51:36 GMT 54.111008 -2.446891 36,000 334 449 -128
2022-05-16 16:51:33 GMT 54.111008 -2.446891 36,000 334 449 -128
2022-05-16 16:51:30 GMT 54.103149 -2.440257 36,025 334 449 -64
2022-05-16 16:51:27 GMT 54.099243 -2.437003 36,025 334 449 -128
2022-05-16 16:51:24 GMT 54.095329 -2.433714 36,025 334 449 -128
2022-05-16 16:51:22 GMT 54.090546 -2.429705 36,025 334 449 -128
2022-05-16 16:51:20 GMT 54.081253 -2.421858 36,025 334 449 -128
2022-05-16 16:51:17 GMT 54.074982 -2.416600 36,050 334 448 -128
2022-05-16 16:51:14 GMT 54.074982 -2.416600 36,050 334 448 -64
2022-05-16 16:51:12 GMT 54.072189 -2.414246 36,050 334 448 -64
2022-05-16 16:51:10 GMT 54.062603 -2.406167 36,050 334 448 0
2022-05-16 16:51:07 GMT 54.062603 -2.406167 36,050 334 448 0
2022-05-16 16:51:04 GMT 54.058228 -2.402553 36,025 334 448 64
2022-05-16 16:51:02 GMT 54.053246 -2.398332 36,025 334 448 64
2022-05-16 16:51:00 GMT 54.048264 -2.394131 36,025 334 448 0
2022-05-16 16:50:57 GMT 54.043625 -2.390233 36,025 334 448 0
2022-05-16 16:50:54 GMT 54.035744 -2.383629 36,025 334 448 0
2022-05-16 16:50:52 GMT 54.035744 -2.383629 36,025 334 448 0
2022-05-16 16:50:50 GMT 54.031368 -2.379913 36,025 334 448 0
2022-05-16 16:50:47 GMT 54.024124 -2.373832 36,050 334 447 64
2022-05-16 16:50:44 GMT 54.020149 -2.370462 36,050 334 448 0
2022-05-16 16:50:42 GMT 54.017120 -2.367946 36,025 334 448 64
2022-05-16 16:50:40 GMT 54.012405 -2.363944 36,025 334 448 64
2022-05-16 16:50:38 GMT 54.008698 -2.360849 36,025 334 448 64
2022-05-16 16:50:35 GMT 54.003113 -2.356097 36,025 334 448 64
2022-05-16 16:50:32 GMT 53.995987 -2.350105 36,050 334 447 64
2022-05-16 16:50:29 GMT 53.990494 -2.345500 36,025 334 447 64
2022-05-16 16:50:26 GMT 53.986118 -2.341784 36,025 334 447 64
2022-05-16 16:50:23 GMT 53.981186 -2.337655 36,025 334 447 64
2022-05-16 16:50:21 GMT 53.978210 -2.335144 36,025 334 448 64
2022-05-16 16:50:19 GMT 53.974091 -2.331691 36,025 334 448 64
2022-05-16 16:50:16 GMT 53.967823 -2.326436 36,025 334 448 64
2022-05-16 16:50:13 GMT 53.962563 -2.322074 36,025 334 447 128
2022-05-16 16:50:11 GMT 53.959675 -2.319650 36,025 334 447 128
2022-05-16 16:50:09 GMT 53.950241 -2.311759 36,025 334 447 128
2022-05-16 16:50:06 GMT 53.950241 -2.311759 36,000 334 447 128
2022-05-16 16:50:04 GMT 53.941010 -2.304140 36,000 335 447 128
2022-05-16 16:50:01 GMT 53.941010 -2.304140 36,000 335 447 128
2022-05-16 16:49:59 GMT 53.936234 -2.300223 36,000 335 446 0
2022-05-16 16:49:56 GMT 53.931381 -2.296221 35,975 335 446 64
2022-05-16 16:49:54 GMT 53.927834 -2.293234 35,975 335 446 64
2022-05-16 16:49:52 GMT 53.923874 -2.290022 35,975 335 446 0
2022-05-16 16:49:49 GMT 53.915817 -2.283351 35,975 335 446 0
2022-05-16 16:49:46 GMT 53.906979 -2.276109 35,975 334 440 64
2022-05-16 16:49:43 GMT 53.903000 -2.272836 35,975 334 446 0
2022-05-16 16:49:41 GMT 53.903000 -2.272836 35,975 334 446 -64
2022-05-16 16:49:39 GMT 53.899887 -2.270246 35,975 334 446 -64
2022-05-16 16:49:37 GMT 53.894505 -2.265769 35,975 334 445 -64
2022-05-16 16:49:34 GMT 53.889614 -2.261730 35,975 334 444 -64
2022-05-16 16:49:31 GMT 53.882214 -2.255590 36,000 334 440 0
2022-05-16 16:49:27 GMT 53.876816 -2.251099 36,000 334 443 0
2022-05-16 16:49:24 GMT 53.865921 -2.241996 36,000 334 441 64
2022-05-16 16:49:21 GMT 53.858658 -2.235960 36,000 334 442 0
2022-05-16 16:49:18 GMT 53.854843 -2.232736 36,000 334 441 64
2022-05-16 16:49:15 GMT 53.854843 -2.232736 36,000 334 441 64
2022-05-16 16:49:12 GMT 53.849350 -2.228184 36,000 334 441 64
2022-05-16 16:49:10 GMT 53.846649 -2.225943 36,000 334 441 64
2022-05-16 16:49:08 GMT 53.838779 -2.219400 36,000 334 441 64
2022-05-16 16:49:06 GMT 53.838779 -2.219400 36,000 334 441 64
2022-05-16 16:49:03 GMT 53.829208 -2.211391 35,975 334 440 0
2022-05-16 16:49:00 GMT 53.827469 -2.209948 35,975 334 440 0
2022-05-16 16:48:58 GMT 53.823715 -2.206761 35,975 334 440 64
2022-05-16 16:48:55 GMT 53.818359 -2.202366 35,975 334 440 64
2022-05-16 16:48:52 GMT 53.812988 -2.197912 35,975 334 440 64
2022-05-16 16:48:49 GMT 53.809452 -2.194923 35,975 334 440 64
2022-05-16 16:48:47 GMT 53.804031 -2.190360 35,975 334 440 64
2022-05-16 16:48:45 GMT 53.793869 -2.181963 35,975 334 440 64
2022-05-16 16:48:42 GMT 53.793869 -2.181963 35,975 334 440 64
2022-05-16 16:48:39 GMT 53.789806 -2.178524 35,975 334 440 0
2022-05-16 16:48:37 GMT 53.786179 -2.175528 35,975 334 440 0
2022-05-16 16:48:34 GMT 53.779404 -2.169878 35,975 334 440 0
2022-05-16 16:48:31 GMT 53.769608 -2.161795 35,975 334 440 0
2022-05-16 16:48:28 GMT 53.769608 -2.161795 35,975 334 439 0
2022-05-16 16:48:25 GMT 53.764622 -2.157602 35,975 334 439 -64
2022-05-16 16:48:23 GMT 53.760853 -2.154532 35,975 334 439 -64
2022-05-16 16:48:20 GMT 53.755508 -2.150103 35,975 335 439 -128
2022-05-16 16:48:17 GMT 53.749191 -2.144924 35,975 335 439 -128
2022-05-16 16:48:14 GMT 53.739258 -2.136762 36,000 335 439 -128
2022-05-16 16:48:12 GMT 53.739258 -2.136762 36,000 335 438 -128
2022-05-16 16:48:09 GMT 53.734505 -2.132883 36,000 335 438 -128
2022-05-16 16:48:07 GMT 53.732502 -2.131267 36,000 335 438 -128
2022-05-16 16:48:05 GMT 53.727844 -2.127389 36,000 334 437 -64
2022-05-16 16:48:03 GMT 53.723377 -2.123754 36,000 334 436 0
2022-05-16 16:48:00 GMT 53.716999 -2.118423 36,000 334 437 0
2022-05-16 16:47:57 GMT 53.713322 -2.115353 36,000 334 436 0
2022-05-16 16:47:54 GMT 53.707085 -2.110183 36,000 334 436 0
2022-05-16 16:47:51 GMT 53.697727 -2.102428 36,000 334 436 0
2022-05-16 16:47:49 GMT 53.697727 -2.102428 36,000 334 436 0
2022-05-16 16:47:46 GMT 53.694122 -2.099409 36,000 334 436 0
2022-05-16 16:47:44 GMT 53.688370 -2.094673 36,000 335 436 64
2022-05-16 16:47:41 GMT 53.684784 -2.091718 36,000 335 436 0
2022-05-16 16:47:39 GMT 53.675102 -2.083767 36,000 335 436 0
2022-05-16 16:47:36 GMT 53.675102 -2.083767 36,000 335 436 0
2022-05-16 16:47:33 GMT 53.670307 -2.079809 36,000 335 436 0
2022-05-16 16:47:31 GMT 53.664734 -2.075239 36,000 335 436 0
2022-05-16 16:47:28 GMT 53.660385 -2.071708 36,000 335 436 64
2022-05-16 16:47:26 GMT 53.658417 -2.070060 36,000 335 436 64
2022-05-16 16:47:24 GMT 53.653828 -2.066318 36,000 334 436 0
2022-05-16 16:47:21 GMT 53.648613 -2.062037 36,000 334 436 64
2022-05-16 16:47:19 GMT 53.643822 -2.058079 36,000 334 436 64
2022-05-16 16:47:16 GMT 53.635666 -2.051304 36,000 334 436 0
2022-05-16 16:47:12 GMT 53.631271 -2.047695 36,000 334 436 0
2022-05-16 16:47:09 GMT 53.626968 -2.044184 36,000 334 436 0
2022-05-16 16:47:06 GMT 53.621101 -2.039337 36,000 334 435 0
2022-05-16 16:47:03 GMT 53.614956 -2.034248 36,000 334 435 64
2022-05-16 16:47:00 GMT 53.610077 -2.030195 36,000 334 435 0
2022-05-16 16:46:57 GMT 53.603943 -2.025173 36,000 334 436 0
2022-05-16 16:46:55 GMT 53.600693 -2.022426 36,000 334 436 0
2022-05-16 16:46:53 GMT 53.597641 -2.019950 36,000 334 436 64
2022-05-16 16:46:51 GMT 53.594147 -2.017090 36,000 334 436 64
2022-05-16 16:46:48 GMT 53.587830 -2.011911 36,000 334 436 0
2022-05-16 16:46:45 GMT 53.583256 -2.008155 36,000 334 436 0
2022-05-16 16:46:43 GMT 53.578320 -2.004036 36,000 334 436 0
2022-05-16 16:46:40 GMT 53.574738 -2.001127 36,000 335 436 -64
2022-05-16 16:46:38 GMT 53.568962 -1.996442 36,000 335 436 -64
2022-05-16 16:46:35 GMT 53.564449 -1.992726 36,000 335 437 -128
2022-05-16 16:46:33 GMT 53.560585 -1.989576 36,000 335 437 -64
2022-05-16 16:46:30 GMT 53.555092 -1.985133 36,000 335 436 -64
2022-05-16 16:46:27 GMT 53.551346 -1.982091 36,000 335 436 -64
2022-05-16 16:46:25 GMT 53.546852 -1.978347 36,025 335 436 64
2022-05-16 16:46:23 GMT 53.544296 -1.976362 36,025 335 436 64
2022-05-16 16:46:21 GMT 53.539124 -1.972046 36,025 335 436 64
2022-05-16 16:46:18 GMT 53.533722 -1.967651 36,000 335 436 64
2022-05-16 16:46:15 GMT 53.528503 -1.963414 36,000 335 436 64
2022-05-16 16:46:10 GMT 53.518921 -1.955566 36,000 335 436 64
2022-05-16 16:46:08 GMT 53.515244 -1.952577 36,000 335 436 64
2022-05-16 16:46:05 GMT 53.510540 -1.948700 36,000 335 436 64
2022-05-16 16:46:02 GMT 53.503235 -1.942775 36,000 335 436 0
2022-05-16 16:45:59 GMT 53.497738 -1.938279 35,975 334 436 0
2022-05-16 16:45:56 GMT 53.493221 -1.934563 35,975 334 436 0
2022-05-16 16:45:53 GMT 53.489731 -1.931736 36,000 334 436 0
2022-05-16 16:45:51 GMT 53.485199 -1.928022 36,000 334 436 -64
2022-05-16 16:45:49 GMT 53.481491 -1.924962 36,000 334 436 -64
2022-05-16 16:45:46 GMT 53.476181 -1.920567 36,000 334 435 -64
2022-05-16 16:45:44 GMT 53.468857 -1.914603 36,000 334 435 -64
2022-05-16 16:45:39 GMT 53.464462 -1.910993 36,025 334 434 -64
2022-05-16 16:45:37 GMT 53.459846 -1.907178 36,025 335 433 0
2022-05-16 16:45:34 GMT 53.450581 -1.899665 36,025 335 432 0
2022-05-16 16:45:32 GMT 53.450581 -1.899665 35,950 334 430 320
2022-05-16 16:45:29 GMT 53.444962 -1.895142 36,000 335 432 0
2022-05-16 16:45:26 GMT 53.439468 -1.890669 35,975 335 431 64
2022-05-16 16:45:23 GMT 53.434895 -1.886983 36,000 335 432 0
2022-05-16 16:45:21 GMT 53.429726 -1.882782 36,000 335 431 64
2022-05-16 16:45:18 GMT 53.424278 -1.878339 36,000 335 431 64
2022-05-16 16:45:15 GMT 53.420277 -1.875027 35,975 335 431 64
2022-05-16 16:45:12 GMT 53.415714 -1.871311 35,975 335 431 64
2022-05-16 16:45:09 GMT 53.409149 -1.865979 35,950 334 430 512
2022-05-16 16:45:06 GMT 53.402985 -1.860927 35,975 334 430 256
2022-05-16 16:45:03 GMT 53.398773 -1.857553 35,950 334 430 384
2022-05-16 16:45:01 GMT 53.396210 -1.855434 35,950 334 430 512
2022-05-16 16:44:59 GMT 53.390808 -1.851039 35,925 335 430 704
2022-05-16 16:44:56 GMT 53.380333 -1.842472 35,875 335 428 640
2022-05-16 16:44:53 GMT 53.380333 -1.842472 35,825 335 428 1024
2022-05-16 16:44:50 GMT 53.376099 -1.839079 35,750 335 428 960
2022-05-16 16:44:47 GMT 53.369843 -1.834011 35,725 335 428 1024
2022-05-16 16:44:44 GMT 53.366043 -1.831001 35,725 335 428 1024
2022-05-16 16:44:42 GMT 53.360825 -1.826791 35,550 335 428 1088
2022-05-16 16:44:39 GMT 53.354683 -1.821792 35,600 335 428 1088
2022-05-16 16:44:36 GMT 53.349060 -1.817296 35,550 335 428 1088
2022-05-16 16:44:33 GMT 53.345886 -1.814683 35,525 335 428 1088
2022-05-16 16:44:31 GMT 53.342102 -1.811646 35,475 335 428 1024
2022-05-16 16:44:28 GMT 53.335365 -1.806201 35,425 335 428 1024
2022-05-16 16:44:25 GMT 53.331070 -1.802778 35,375 335 428 1408
2022-05-16 16:44:22 GMT 53.326565 -1.799173 35,325 335 428 1088
2022-05-16 16:44:20 GMT 53.322842 -1.796103 35,325 335 429 1472
2022-05-16 16:44:18 GMT 53.317703 -1.792027 35,225 335 428 1344
2022-05-16 16:44:15 GMT 53.307083 -1.783473 35,100 335 429 1472
2022-05-16 16:44:12 GMT 53.302734 -1.779942 35,000 335 432 1152
2022-05-16 16:44:09 GMT 53.302734 -1.779942 34,975 335 430 1408
2022-05-16 16:44:07 GMT 53.300312 -1.778008 35,000 335 431 1280
2022-05-16 16:44:05 GMT 53.288441 -1.768476 34,900 335 431 1216
2022-05-16 16:44:02 GMT 53.288441 -1.768476 34,850 335 431 1216
2022-05-16 16:43:59 GMT 53.284855 -1.765568 34,800 335 432 1216
2022-05-16 16:43:56 GMT 53.279873 -1.761609 34,775 335 432 1152
2022-05-16 16:43:54 GMT 53.275127 -1.757732 34,700 335 432 960
2022-05-16 16:43:51 GMT 53.264839 -1.749411 34,600 335 431 960
2022-05-16 16:43:48 GMT 53.264839 -1.749411 34,425 334 428 640
2022-05-16 16:43:45 GMT 53.259766 -1.745291 34,575 335 431 832
2022-05-16 16:43:42 GMT 53.254211 -1.740784 34,525 335 431 832
2022-05-16 16:43:40 GMT 53.250408 -1.737698 34,525 334 429 768
2022-05-16 16:43:38 GMT 53.244141 -1.732622 34,425 334 427 768
2022-05-16 16:43:36 GMT 53.244141 -1.732622 34,450 334 428 704
2022-05-16 16:43:33 GMT 53.238071 -1.727600 34,400 334 427 704
2022-05-16 16:43:30 GMT 53.232422 -1.722970 34,400 334 427 640
2022-05-16 16:43:28 GMT 53.228897 -1.720145 34,375 334 427 768
2022-05-16 16:43:25 GMT 53.223129 -1.715358 34,350 334 427 768
2022-05-16 16:43:22 GMT 53.213333 -1.707354 34,175 335 425 896
2022-05-16 16:43:19 GMT 53.213333 -1.707354 34,275 334 426 768
2022-05-16 16:43:16 GMT 53.207996 -1.702962 34,250 335 425 768
2022-05-16 16:43:14 GMT 53.204227 -1.699973 34,225 335 425 1024
2022-05-16 16:43:11 GMT 53.198689 -1.695449 34,150 335 425 704
2022-05-16 16:43:08 GMT 53.193565 -1.691329 34,025 335 424 1024
2022-05-16 16:43:05 GMT 53.188385 -1.687186 34,050 335 425 704
2022-05-16 16:43:02 GMT 53.183788 -1.683493 34,025 335 425 576
2022-05-16 16:42:59 GMT 53.177032 -1.678083 34,025 335 426 -64
2022-05-16 16:42:56 GMT 53.172619 -1.674526 34,025 335 427 -64
2022-05-16 16:42:54 GMT 53.164051 -1.667741 34,025 335 434 192
2022-05-16 16:42:51 GMT 53.164051 -1.667741 34,025 335 428 -64
2022-05-16 16:42:48 GMT 53.159409 -1.663958 34,025 335 429 64
2022-05-16 16:42:45 GMT 53.152599 -1.658612 34,000 335 432 192
2022-05-16 16:42:43 GMT 53.149658 -1.656267 34,000 335 430 64
2022-05-16 16:42:40 GMT 53.144268 -1.651988 33,950 335 432 192
2022-05-16 16:42:37 GMT 53.133591 -1.643555 33,975 335 432 192
2022-05-16 16:42:34 GMT 53.133591 -1.643555 33,950 335 433 192
2022-05-16 16:42:31 GMT 53.128281 -1.639396 33,900 335 435 384
2022-05-16 16:42:28 GMT 53.122238 -1.634609 33,950 335 435 384
2022-05-16 16:42:25 GMT 53.117172 -1.630581 33,925 335 435 576
2022-05-16 16:42:23 GMT 53.113777 -1.627915 33,900 335 435 768
2022-05-16 16:42:21 GMT 53.109959 -1.624846 33,825 335 435 1088
2022-05-16 16:42:18 GMT 53.105438 -1.621268 33,825 335 435 1088
2022-05-16 16:42:16 GMT 53.099533 -1.616560 33,775 335 435 1216
2022-05-16 16:42:13 GMT 53.094223 -1.612322 33,725 335 435 1216
2022-05-16 16:42:10 GMT 53.085114 -1.605148 33,575 335 435 1152
2022-05-16 16:42:08 GMT 53.080078 -1.601105 33,625 335 435 1024
2022-05-16 16:42:05 GMT 53.080078 -1.601105 33,575 335 435 1088
2022-05-16 16:42:02 GMT 53.075500 -1.597519 33,525 335 435 1024
2022-05-16 16:42:00 GMT 53.070694 -1.593628 33,425 335 435 832
2022-05-16 16:41:57 GMT 53.066986 -1.590652 33,350 335 435 832
2022-05-16 16:41:55 GMT 53.061871 -1.586583 33,425 335 432 768
2022-05-16 16:41:52 GMT 53.056656 -1.582424 33,375 335 433 832
2022-05-16 16:41:49 GMT 53.051815 -1.578578 33,325 335 433 832
2022-05-16 16:41:46 GMT 53.047253 -1.574890 33,325 335 432 704
2022-05-16 16:41:44 GMT 53.042908 -1.571426 33,300 335 432 704
2022-05-16 16:41:41 GMT 53.037663 -1.567200 33,250 335 432 704
2022-05-16 16:41:39 GMT 53.033195 -1.563590 33,125 335 428 640
2022-05-16 16:41:36 GMT 53.021484 -1.554184 33,175 335 429 640
2022-05-16 16:41:33 GMT 53.021484 -1.554184 33,150 335 428 640
2022-05-16 16:41:30 GMT 53.016953 -1.550598 33,075 335 427 704
2022-05-16 16:41:27 GMT 53.013016 -1.547394 33,050 335 426 448
2022-05-16 16:41:25 GMT 53.008484 -1.543808 33,025 335 427 576
2022-05-16 16:41:22 GMT 53.003998 -1.540222 33,050 335 427 576
2022-05-16 16:41:20 GMT 52.999603 -1.536713 33,050 335 427 512
2022-05-16 16:41:17 GMT 52.995300 -1.533299 33,025 335 427 0
2022-05-16 16:41:15 GMT 52.990738 -1.529689 33,000 335 427 0
2022-05-16 16:41:12 GMT 52.981426 -1.522313 33,000 335 427 0
2022-05-16 16:41:09 GMT 52.981426 -1.522313 33,000 335 427 -64
2022-05-16 16:41:07 GMT 52.975937 -1.517944 33,000 335 427 0
2022-05-16 16:41:04 GMT 52.971268 -1.514206 33,000 335 427 -64
2022-05-16 16:41:01 GMT 52.960144 -1.505356 33,000 335 426 64
2022-05-16 16:40:58 GMT 52.954605 -1.500931 33,000 335 427 64
2022-05-16 16:40:55 GMT 52.954605 -1.500931 33,000 335 427 64
2022-05-16 16:40:52 GMT 52.951962 -1.498771 33,000 335 427 64
2022-05-16 16:40:50 GMT 52.940643 -1.489868 33,000 335 426 64
2022-05-16 16:40:47 GMT 52.940643 -1.489868 32,975 335 427 0
2022-05-16 16:40:44 GMT 52.934364 -1.484881 32,975 335 427 64
2022-05-16 16:40:41 GMT 52.930920 -1.482134 32,975 335 427 128
2022-05-16 16:40:39 GMT 52.926777 -1.478838 32,975 335 427 256
2022-05-16 16:40:37 GMT 52.923935 -1.476593 32,950 335 427 320
2022-05-16 16:40:35 GMT 52.919701 -1.473267 32,950 335 426 896
2022-05-16 16:40:33 GMT 52.917046 -1.471148 32,850 335 426 960
2022-05-16 16:40:30 GMT 52.911530 -1.466751 32,300 335 426 1280
2022-05-16 16:40:27 GMT 52.905685 -1.462123 32,875 335 426 1152
2022-05-16 16:40:24 GMT 52.895279 -1.453934 32,675 335 426 1408
2022-05-16 16:40:21 GMT 52.895279 -1.453934 32,775 335 426 1344
2022-05-16 16:40:18 GMT 52.884552 -1.445487 32,575 335 426 1408
2022-05-16 16:40:15 GMT 52.884552 -1.445487 32,625 335 426 1344
2022-05-16 16:40:13 GMT 52.879944 -1.441877 32,550 335 426 1408
2022-05-16 16:40:10 GMT 52.872070 -1.435699 32,000 335 426 1408
2022-05-16 16:40:08 GMT 52.872070 -1.435699 32,425 335 426 1408
2022-05-16 16:40:05 GMT 52.865837 -1.430734 32,350 335 427 1280
2022-05-16 16:40:02 GMT 52.860252 -1.426339 32,200 335 426 1152
2022-05-16 16:39:59 GMT 52.851688 -1.419591 32,200 335 426 1024
2022-05-16 16:39:56 GMT 52.851688 -1.419591 32,175 335 426 1024
2022-05-16 16:39:54 GMT 52.846565 -1.415510 32,175 335 422 1344
2022-05-16 16:39:51 GMT 52.839111 -1.409607 32,125 335 424 896
2022-05-16 16:39:47 GMT 52.835632 -1.406860 32,025 335 424 896
2022-05-16 16:39:44 GMT 52.825104 -1.398560 31,925 335 422 1344
2022-05-16 16:39:39 GMT 52.817368 -1.392441 31,825 335 423 1088
2022-05-16 16:39:37 GMT 52.817368 -1.392441 31,900 335 423 1088
2022-05-16 16:39:35 GMT 52.812881 -1.388931 31,875 335 422 1152
2022-05-16 16:39:32 GMT 52.808067 -1.385141 31,825 335 422 1216
2022-05-16 16:39:29 GMT 52.802807 -1.380981 31,775 335 422 1344
2022-05-16 16:39:26 GMT 52.797688 -1.376979 31,175 335 422 1280
2022-05-16 16:39:24 GMT 52.794102 -1.374154 31,625 335 422 1216
2022-05-16 16:39:21 GMT 52.789078 -1.370239 31,550 335 421 1152
2022-05-16 16:39:18 GMT 52.782883 -1.365287 31,400 335 420 1280
2022-05-16 16:39:15 GMT 52.779007 -1.362228 31,300 335 421 1280
2022-05-16 16:39:12 GMT 52.772736 -1.357346 31,400 335 420 1408
2022-05-16 16:39:09 GMT 52.767700 -1.353378 31,325 335 421 1472
2022-05-16 16:39:06 GMT 52.761700 -1.348650 31,225 335 420 1472
2022-05-16 16:39:03 GMT 52.750481 -1.339783 31,150 335 421 1408
2022-05-16 16:39:00 GMT 52.750481 -1.339783 31,075 335 420 1280
2022-05-16 16:38:57 GMT 52.746689 -1.336823 31,075 335 420 1280
2022-05-16 16:38:55 GMT 52.743256 -1.334076 31,025 335 420 1280
2022-05-16 16:38:53 GMT 52.738586 -1.330414 30,975 335 420 1280
2022-05-16 16:38:50 GMT 52.733677 -1.326599 30,850 335 418 1088
2022-05-16 16:38:47 GMT 52.730621 -1.324158 30,875 335 420 1216
2022-05-16 16:38:45 GMT 52.727020 -1.321341 30,800 335 419 1088
2022-05-16 16:38:43 GMT 52.723576 -1.318673 30,750 335 419 1088
2022-05-16 16:38:41 GMT 52.718872 -1.314985 30,750 335 419 1088
2022-05-16 16:38:38 GMT 52.714684 -1.311689 30,650 335 417 1024
2022-05-16 16:38:36 GMT 52.711258 -1.308975 30,650 335 417 1024
2022-05-16 16:38:34 GMT 52.705994 -1.304855 30,600 335 417 1024
2022-05-16 16:38:31 GMT 52.700764 -1.300781 30,550 335 417 960
2022-05-16 16:38:28 GMT 52.690292 -1.292572 30,500 335 416 896
2022-05-16 16:38:25 GMT 52.690292 -1.292572 30,475 335 416 832
2022-05-16 16:38:22 GMT 52.685577 -1.288834 30,450 335 415 768
2022-05-16 16:38:19 GMT 52.675114 -1.280613 30,375 335 414 832
2022-05-16 16:38:16 GMT 52.675114 -1.280613 30,350 335 413 896
2022-05-16 16:38:14 GMT 52.670177 -1.276768 30,300 335 413 896
2022-05-16 16:38:12 GMT 52.665710 -1.273270 30,300 335 413 896
2022-05-16 16:38:10 GMT 52.665710 -1.273270 29,775 335 410 1344
2022-05-16 16:38:07 GMT 52.657242 -1.266632 30,175 335 412 960
2022-05-16 16:38:05 GMT 52.657242 -1.266632 30,200 335 410 1280
2022-05-16 16:38:03 GMT 52.652985 -1.263275 30,150 335 411 1024
2022-05-16 16:38:00 GMT 52.648159 -1.259504 30,050 335 411 1152
2022-05-16 16:37:57 GMT 52.641403 -1.254120 29,975 335 410 1408
2022-05-16 16:37:54 GMT 52.637604 -1.251144 29,975 335 410 1472
2022-05-16 16:37:52 GMT 52.634262 -1.248550 29,825 335 411 1536
2022-05-16 16:37:49 GMT 52.625015 -1.241302 29,725 335 411 1536
2022-05-16 16:37:46 GMT 52.625015 -1.241302 29,775 335 411 1536
2022-05-16 16:37:44 GMT 52.619110 -1.236668 29,700 335 410 1536
2022-05-16 16:37:41 GMT 52.616550 -1.234628 29,650 335 410 1536
2022-05-16 16:37:39 GMT 52.612408 -1.231489 29,525 335 410 1728
2022-05-16 16:37:36 GMT 52.606888 -1.227112 29,500 335 410 1664
2022-05-16 16:37:34 GMT 52.603470 -1.224426 29,425 335 410 1728
2022-05-16 16:37:31 GMT 52.598209 -1.220346 29,325 335 410 1728
2022-05-16 16:37:28 GMT 52.590015 -1.213989 29,275 335 410 1728
2022-05-16 16:37:26 GMT 52.590015 -1.213989 29,225 335 411 1792
2022-05-16 16:37:24 GMT 52.585503 -1.210458 29,125 335 411 1792
2022-05-16 16:37:21 GMT 52.577454 -1.204147 29,025 335 411 1792
2022-05-16 16:37:19 GMT 52.577454 -1.204147 29,025 335 411 1792
2022-05-16 16:37:16 GMT 52.570175 -1.198502 28,875 335 411 1792
2022-05-16 16:37:14 GMT 52.565323 -1.194763 27,800 337 422 1792
2022-05-16 16:37:12 GMT 52.565323 -1.194763 28,625 335 412 1856
2022-05-16 16:37:09 GMT 52.560242 -1.190796 28,725 335 412 1856
2022-05-16 16:37:06 GMT 52.552551 -1.184845 28,550 335 412 1984
2022-05-16 16:37:02 GMT 52.548431 -1.181641 28,425 335 413 1984
2022-05-16 16:36:59 GMT 52.542206 -1.176834 28,325 335 413 2048
2022-05-16 16:36:56 GMT 52.539459 -1.174698 28,250 335 413 2048
2022-05-16 16:36:53 GMT 52.532318 -1.169205 28,175 335 414 2304
2022-05-16 16:36:51 GMT 52.527870 -1.165728 28,025 335 416 2432
2022-05-16 16:36:48 GMT 52.522797 -1.161804 27,850 335 416 2496
2022-05-16 16:36:45 GMT 52.514877 -1.155624 27,700 335 418 2304
2022-05-16 16:36:42 GMT 52.514877 -1.155624 27,675 335 418 2368
2022-05-16 16:36:39 GMT 52.506966 -1.149484 27,650 335 419 2240
2022-05-16 16:36:36 GMT 52.502872 -1.146266 27,550 335 419 2176
2022-05-16 16:36:33 GMT 52.497608 -1.142264 27,225 336 421 1792
2022-05-16 16:36:30 GMT 52.488739 -1.135635 27,275 337 422 1792
2022-05-16 16:36:27 GMT 52.488739 -1.135635 27,150 337 423 1728
2022-05-16 16:36:25 GMT 52.483063 -1.131516 27,025 338 424 1600
2022-05-16 16:36:22 GMT 52.474102 -1.125392 27,075 338 424 1600
2022-05-16 16:36:19 GMT 52.474102 -1.125392 27,025 338 424 1600
2022-05-16 16:36:17 GMT 52.468098 -1.121390 26,725 338 424 1472
2022-05-16 16:36:14 GMT 52.462509 -1.117706 26,850 338 424 1536
2022-05-16 16:36:11 GMT 52.458160 -1.114807 26,750 338 423 1408
2022-05-16 16:36:08 GMT 52.452072 -1.110764 26,725 338 423 1344
2022-05-16 16:36:05 GMT 52.448357 -1.108285 26,675 338 422 1280
2022-05-16 16:36:03 GMT 52.440212 -1.102792 26,550 338 422 1344
2022-05-16 16:35:58 GMT 52.435463 -1.099653 26,475 338 421 1472
2022-05-16 16:35:55 GMT 52.430145 -1.096115 26,425 338 421 1472
2022-05-16 16:35:53 GMT 52.422150 -1.090707 26,350 338 421 1536
2022-05-16 16:35:51 GMT 52.422150 -1.090707 26,250 338 420 1536
2022-05-16 16:35:48 GMT 52.417866 -1.087803 26,300 338 420 1536
2022-05-16 16:35:45 GMT 52.412064 -1.083984 26,200 338 420 1536
2022-05-16 16:35:43 GMT 52.407440 -1.080819 26,075 338 419 1536
2022-05-16 16:35:40 GMT 52.399109 -1.075211 25,925 338 419 1536
2022-05-16 16:35:38 GMT 52.399109 -1.075211 25,925 338 418 1664
2022-05-16 16:35:34 GMT 52.386337 -1.066666 25,775 338 418 1728
2022-05-16 16:35:31 GMT 52.386337 -1.066666 25,750 338 418 1728
2022-05-16 16:35:28 GMT 52.380020 -1.062456 25,600 338 418 1792
2022-05-16 16:35:25 GMT 52.376312 -1.059952 25,575 338 418 1984
2022-05-16 16:35:22 GMT 52.370941 -1.056335 25,525 338 417 1920
2022-05-16 16:35:20 GMT 52.365967 -1.052933 25,275 338 418 2176
2022-05-16 16:35:17 GMT 52.360046 -1.048880 25,325 338 418 2048
2022-05-16 16:35:14 GMT 52.357254 -1.046997 25,300 338 419 2176
2022-05-16 16:35:12 GMT 52.351181 -1.042862 25,025 338 419 2176
2022-05-16 16:35:09 GMT 52.348225 -1.040798 25,025 338 419 2112
2022-05-16 16:35:07 GMT 52.343384 -1.037502 24,900 338 419 2048
2022-05-16 16:35:05 GMT 52.337982 -1.033735 24,850 337 419 1408
2022-05-16 16:35:01 GMT 52.332489 -1.029968 24,800 337 419 1472
2022-05-16 16:34:58 GMT 52.322708 -1.023178 24,650 337 419 1408
2022-05-16 16:34:55 GMT 52.319138 -1.020737 24,575 338 418 1408
2022-05-16 16:34:53 GMT 52.311867 -1.015686 24,575 338 418 1408
2022-05-16 16:34:50 GMT 52.311867 -1.015686 24,475 337 417 1472
2022-05-16 16:34:47 GMT 52.302704 -1.009369 24,475 337 417 1472
2022-05-16 16:34:44 GMT 52.302704 -1.009369 24,375 338 415 1408
2022-05-16 16:34:41 GMT 52.298492 -1.006393 24,325 338 414 1408
2022-05-16 16:34:39 GMT 52.295200 -1.004150 24,325 338 414 1472
2022-05-16 16:34:37 GMT 52.285675 -0.997543 24,175 337 414 1600
2022-05-16 16:34:34 GMT 52.285675 -0.997543 24,200 337 414 1600
2022-05-16 16:34:32 GMT 52.276611 -0.991211 24,075 337 413 1792
2022-05-16 16:34:29 GMT 52.276611 -0.991211 23,975 337 413 1856
2022-05-16 16:34:26 GMT 52.270660 -0.987091 23,925 337 413 1856
2022-05-16 16:34:23 GMT 52.265167 -0.983276 23,625 337 413 1920
2022-05-16 16:34:20 GMT 52.261822 -0.980922 23,775 337 413 1920
2022-05-16 16:34:18 GMT 52.258575 -0.978699 23,700 337 413 1920
2022-05-16 16:34:16 GMT 52.255074 -0.976214 23,550 337 412 1856
2022-05-16 16:34:14 GMT 52.250565 -0.973129 23,525 337 412 1856
2022-05-16 16:34:12 GMT 52.242279 -0.967331 23,300 337 411 1664
2022-05-16 16:34:10 GMT 52.242279 -0.967331 23,400 337 411 1728
2022-05-16 16:34:07 GMT 52.237473 -0.964050 22,975 338 410 1472
2022-05-16 16:34:04 GMT 52.232162 -0.960312 23,250 338 411 1664
2022-05-16 16:34:01 GMT 52.227081 -0.956879 23,175 338 410 1536
2022-05-16 16:33:59 GMT 52.224209 -0.954869 23,125 338 410 1536
2022-05-16 16:33:57 GMT 52.221588 -0.953064 23,100 338 410 1472
2022-05-16 16:33:55 GMT 52.217411 -0.950239 22,800 338 408 1472
2022-05-16 16:33:53 GMT 52.214619 -0.948356 23,025 338 409 1472
2022-05-16 16:33:51 GMT 52.210052 -0.945206 22,925 338 408 1472
2022-05-16 16:33:49 GMT 52.204971 -0.941696 22,800 338 407 1344
2022-05-16 16:33:46 GMT 52.201492 -0.939331 22,825 338 407 1408
2022-05-16 16:33:44 GMT 52.195084 -0.934982 22,750 338 406 1472
2022-05-16 16:33:40 GMT 52.191715 -0.932661 22,675 338 405 1856
2022-05-16 16:33:38 GMT 52.186569 -0.929108 22,575 338 405 2112
2022-05-16 16:33:35 GMT 52.181660 -0.925755 22,400 337 406 2496
2022-05-16 16:33:32 GMT 52.178421 -0.923538 22,400 337 405 2496
2022-05-16 16:33:30 GMT 52.172909 -0.919713 22,150 337 406 2496
2022-05-16 16:33:27 GMT 52.167694 -0.916103 22,125 337 407 2240
2022-05-16 16:33:24 GMT 52.163452 -0.913162 21,975 337 407 2240
2022-05-16 16:33:22 GMT 52.160152 -0.910845 21,925 337 407 2240
2022-05-16 16:33:19 GMT 52.154388 -0.906830 21,850 337 407 2176
2022-05-16 16:33:17 GMT 52.151047 -0.904541 21,775 337 407 2176
2022-05-16 16:33:15 GMT 52.146652 -0.901413 21,650 337 406 1792
2022-05-16 16:33:12 GMT 52.142899 -0.898743 21,600 337 406 1600
2022-05-16 16:33:09 GMT 52.136627 -0.894318 21,575 337 405 1472
2022-05-16 16:33:06 GMT 52.133060 -0.891697 20,725 336 398 1984
2022-05-16 16:33:03 GMT 52.126923 -0.887299 21,400 337 402 1536
2022-05-16 16:33:00 GMT 52.122345 -0.884018 21,325 337 401 1600
2022-05-16 16:32:58 GMT 52.119690 -0.882111 21,275 336 400 1664
2022-05-16 16:32:56 GMT 52.110306 -0.875320 21,150 336 398 1984
2022-05-16 16:32:53 GMT 52.110306 -0.875320 21,150 336 399 1792
2022-05-16 16:32:50 GMT 52.105774 -0.872040 21,000 336 398 1984
2022-05-16 16:32:48 GMT 52.102570 -0.869675 20,975 336 397 2112
2022-05-16 16:32:46 GMT 52.098751 -0.866978 20,900 336 397 2176
2022-05-16 16:32:44 GMT 52.094788 -0.864105 20,775 336 397 2240
2022-05-16 16:32:41 GMT 52.089626 -0.860386 20,575 337 397 2304
2022-05-16 16:32:38 GMT 52.080734 -0.853873 20,475 337 397 2560
2022-05-16 16:32:36 GMT 52.080734 -0.853873 20,425 337 397 2688
2022-05-16 16:32:33 GMT 52.077103 -0.851283 20,375 337 397 3008
2022-05-16 16:32:31 GMT 52.071991 -0.847626 20,125 337 398 3200
2022-05-16 16:32:28 GMT 52.068352 -0.845006 20,100 337 398 3328
2022-05-16 16:32:26 GMT 52.065125 -0.842743 19,900 337 399 3264
2022-05-16 16:32:23 GMT 52.058899 -0.838242 19,625 337 401 3008
2022-05-16 16:32:20 GMT 52.055557 -0.835876 19,700 337 401 3008
2022-05-16 16:32:18 GMT 52.051300 -0.832825 19,575 337 401 2816
2022-05-16 16:32:15 GMT 52.046402 -0.829239 19,425 337 402 2688
2022-05-16 16:32:12 GMT 52.041862 -0.826015 19,300 337 402 2240
2022-05-16 16:32:09 GMT 52.035828 -0.821686 19,125 337 402 2240
2022-05-16 16:32:06 GMT 52.030289 -0.817719 18,725 337 402 2240
2022-05-16 16:32:03 GMT 52.026085 -0.814715 18,950 337 401 2240
2022-05-16 16:32:01 GMT 52.021240 -0.811262 18,750 337 401 2240
2022-05-16 16:31:58 GMT 52.017658 -0.808672 18,775 337 401 2304
2022-05-16 16:31:56 GMT 52.013466 -0.805690 18,600 337 401 2304
2022-05-16 16:31:53 GMT 52.008533 -0.802159 18,525 337 400 2304
2022-05-16 16:31:50 GMT 52.002365 -0.797729 18,400 337 399 2368
2022-05-16 16:31:47 GMT 51.998245 -0.794754 18,275 337 398 2368
2022-05-16 16:31:44 GMT 51.994755 -0.792271 18,250 337 398 2304
2022-05-16 16:31:42 GMT 51.991356 -0.789839 18,175 337 398 2304
2022-05-16 16:31:40 GMT 51.982929 -0.783875 18,000 337 397 2304
2022-05-16 16:31:37 GMT 51.982929 -0.783875 17,975 337 397 2240
2022-05-16 16:31:35 GMT 51.978378 -0.780640 17,875 337 396 2240
2022-05-16 16:31:32 GMT 51.975109 -0.778303 17,750 337 396 2176
2022-05-16 16:31:30 GMT 51.969269 -0.774155 17,650 337 395 2240
2022-05-16 16:31:27 GMT 51.960861 -0.768180 17,525 337 394 2240
2022-05-16 16:31:24 GMT 51.960861 -0.768180 17,450 337 394 2240
2022-05-16 16:31:22 GMT 51.958443 -0.766453 17,450 337 394 2240
2022-05-16 16:31:20 GMT 51.953568 -0.763016 17,325 337 392 0
2022-05-16 16:31:17 GMT 51.945965 -0.757664 17,175 337 391 2176
2022-05-16 16:31:15 GMT 51.945965 -0.757664 17,150 337 391 2112
2022-05-16 16:31:13 GMT 51.936703 -0.751072 16,925 337 390 2176
2022-05-16 16:31:10 GMT 51.936703 -0.751072 16,925 337 389 2176
2022-05-16 16:31:07 GMT 51.929161 -0.745736 16,825 337 389 2240
2022-05-16 16:31:05 GMT 51.923714 -0.741891 16,725 337 389 2304
2022-05-16 16:31:02 GMT 51.923714 -0.741891 16,575 337 388 2368
2022-05-16 16:30:59 GMT 51.919510 -0.738983 16,600 337 388 2432
2022-05-16 16:30:57 GMT 51.912918 -0.734406 16,425 337 388 2560
2022-05-16 16:30:55 GMT 51.912918 -0.734406 16,375 339 388 2880
2022-05-16 16:30:53 GMT 51.909843 -0.732317 16,300 338 387 2752
2022-05-16 16:30:51 GMT 51.904301 -0.728786 16,250 339 388 2944
2022-05-16 16:30:48 GMT 51.901089 -0.726903 16,025 344 391 3392
2022-05-16 16:30:46 GMT 51.896343 -0.724391 15,875 344 390 3392
2022-05-16 16:30:43 GMT 51.892105 -0.722504 15,800 345 393 3392
2022-05-16 16:30:40 GMT 51.885357 -0.719910 15,425 351 397 3200
2022-05-16 16:30:37 GMT 51.881561 -0.718788 15,000 356 400 2880
2022-05-16 16:30:35 GMT 51.877167 -0.717674 15,300 354 399 3008
2022-05-16 16:30:32 GMT 51.872910 -0.716932 15,175 355 399 2944
2022-05-16 16:30:30 GMT 51.869293 -0.716338 14,775 356 398 2432
2022-05-16 16:30:28 GMT 51.864441 -0.715819 14,975 356 399 2624
2022-05-16 16:30:26 GMT 51.860916 -0.715408 14,875 356 399 2624
2022-05-16 16:30:23 GMT 51.856155 -0.714854 14,775 356 399 2496
2022-05-16 16:30:21 GMT 51.852539 -0.714408 14,725 356 398 2368
2022-05-16 16:30:18 GMT 51.845924 -0.713654 14,500 356 397 2048
2022-05-16 16:30:15 GMT 51.840714 -0.713120 14,500 356 396 1984
2022-05-16 16:30:13 GMT 51.835358 -0.712433 14,350 356 393 1920
2022-05-16 16:30:10 GMT 51.831665 -0.712033 14,075 356 390 1920
2022-05-16 16:30:07 GMT 51.826931 -0.711517 14,225 356 391 1856
2022-05-16 16:30:05 GMT 51.823059 -0.711068 13,925 356 390 1920
2022-05-16 16:30:02 GMT 51.817436 -0.710373 14,025 356 387 1984
2022-05-16 16:29:59 GMT 51.805565 -0.709000 13,875 356 385 2112
2022-05-16 16:29:56 GMT 51.805565 -0.709000 13,775 356 384 2176
2022-05-16 16:29:53 GMT 51.802307 -0.708618 13,775 356 384 2240
2022-05-16 16:29:51 GMT 51.799515 -0.708237 13,700 356 383 2304
2022-05-16 16:29:48 GMT 51.792435 -0.707430 13,450 356 380 2176
2022-05-16 16:29:45 GMT 51.788059 -0.706940 13,450 356 380 2176
2022-05-16 16:29:43 GMT 51.783646 -0.706391 13,275 356 377 2176
2022-05-16 16:29:40 GMT 51.778099 -0.705719 13,175 356 375 2432
2022-05-16 16:29:37 GMT 51.773582 -0.705185 13,175 356 375 2432
2022-05-16 16:29:34 GMT 51.769348 -0.704727 13,025 357 374 2816
2022-05-16 16:29:32 GMT 51.764179 -0.704117 12,900 357 374 3072
2022-05-16 16:29:30 GMT 51.761806 -0.703888 12,775 357 373 3648
2022-05-16 16:29:27 GMT 51.753426 -0.702972 12,625 357 373 3712
2022-05-16 16:29:25 GMT 51.750595 -0.702680 12,450 357 374 3840
2022-05-16 16:29:23 GMT 51.750595 -0.702680 12,375 357 374 3840
2022-05-16 16:29:21 GMT 51.746349 -0.702133 12,275 357 374 3904
2022-05-16 16:29:19 GMT 51.742439 -0.701752 12,125 356 375 3968
2022-05-16 16:29:17 GMT 51.738716 -0.701294 12,025 356 376 3840
2022-05-16 16:29:15 GMT 51.735180 -0.700912 11,875 356 377 3712
2022-05-16 16:29:12 GMT 51.730774 -0.700378 11,675 357 377 3584
2022-05-16 16:29:09 GMT 51.724640 -0.699710 11,400 356 378 3456
2022-05-16 16:29:06 GMT 51.721069 -0.699265 11,000 356 378 3392
2022-05-16 16:29:04 GMT 51.715714 -0.698671 11,175 356 378 3264
2022-05-16 16:29:01 GMT 51.712326 -0.698300 11,100 356 377 3072
2022-05-16 16:28:59 GMT 51.707062 -0.697708 11,025 356 376 2816
2022-05-16 16:28:56 GMT 51.702869 -0.697174 10,825 356 376 2752
2022-05-16 16:28:54 GMT 51.699566 -0.696793 10,750 356 375 2560
2022-05-16 16:28:51 GMT 51.693787 -0.696147 10,600 356 373 2176
2022-05-16 16:28:49 GMT 51.689621 -0.695628 10,525 356 373 2176
2022-05-16 16:28:46 GMT 51.685135 -0.695108 10,425 356 370 2048
2022-05-16 16:28:44 GMT 51.682110 -0.694733 10,350 356 368 2048
2022-05-16 16:28:42 GMT 51.678635 -0.694366 10,250 356 367 2112
2022-05-16 16:28:40 GMT 51.673218 -0.693741 10,200 356 365 2176
2022-05-16 16:28:37 GMT 51.670670 -0.693401 10,125 356 364 2304
2022-05-16 16:28:35 GMT 51.666698 -0.692902 10,025 356 362 2432
2022-05-16 16:28:33 GMT 51.662430 -0.692436 9,275 357 358 3776
2022-05-16 16:28:30 GMT 51.658878 -0.692062 9,875 356 360 2816
2022-05-16 16:28:27 GMT 51.648926 -0.690877 9,600 357 358 3328
2022-05-16 16:28:25 GMT 51.648926 -0.690877 9,425 356 358 3776
2022-05-16 16:28:22 GMT 51.643707 -0.690283 8,825 357 359 3968
2022-05-16 16:28:19 GMT 51.639561 -0.689850 8,975 356 358 3840
2022-05-16 16:28:16 GMT 51.635193 -0.689318 8,975 356 358 3840
2022-05-16 16:28:14 GMT 51.630524 -0.688798 8,700 357 359 3968
2022-05-16 16:28:11 GMT 51.627457 -0.688477 8,600 357 360 3648
2022-05-16 16:28:09 GMT 51.622803 -0.687943 8,500 357 359 3904
2022-05-16 16:28:06 GMT 51.617588 -0.687332 8,300 357 360 3712
2022-05-16 16:28:03 GMT 51.610092 -0.686646 8,000 357 360 3456
2022-05-16 16:27:59 GMT 51.605713 -0.686274 7,875 358 360 3392
2022-05-16 16:27:56 GMT 51.601761 -0.685959 7,800 359 360 3264
2022-05-16 16:27:54 GMT 51.593399 -0.685903 7,500 0 360 3072
2022-05-16 16:27:52 GMT 51.593399 -0.685903 7,475 2 360 2816
2022-05-16 16:27:49 GMT 51.590168 -0.686111 7,200 6 356 2048
2022-05-16 16:27:46 GMT 51.585434 -0.686720 7,275 4 359 2560
2022-05-16 16:27:44 GMT 51.578854 -0.687866 7,150 6 354 1920
2022-05-16 16:27:42 GMT 51.578854 -0.687866 7,075 6 354 1920
2022-05-16 16:27:39 GMT 51.573715 -0.688798 7,075 6 354 1920
2022-05-16 16:27:36 GMT 51.565121 -0.690231 6,900 4 346 1408
2022-05-16 16:27:34 GMT 51.560349 -0.690802 6,850 2 340 1216
2022-05-16 16:27:31 GMT 51.560349 -0.690802 6,800 1 339 1152
2022-05-16 16:27:28 GMT 51.555115 -0.690842 6,750 354 326 1152
2022-05-16 16:27:25 GMT 51.552181 -0.690536 6,725 354 326 1152
2022-05-16 16:27:23 GMT 51.548676 -0.689837 6,700 351 321 1216
2022-05-16 16:27:20 GMT 51.544498 -0.688553 6,625 343 308 1344
2022-05-16 16:27:18 GMT 51.540665 -0.686942 6,600 343 308 1344
2022-05-16 16:27:15 GMT 51.537140 -0.684938 6,500 334 293 1536
2022-05-16 16:27:13 GMT 51.534492 -0.683060 6,425 332 291 1600
2022-05-16 16:27:10 GMT 51.532024 -0.681152 6,400 332 291 1600
2022-05-16 16:27:08 GMT 51.529678 -0.679000 6,300 326 280 1856
2022-05-16 16:27:05 GMT 51.525650 -0.674768 6,175 324 276 1984
2022-05-16 16:27:03 GMT 51.523682 -0.672393 6,100 323 273 2176
2022-05-16 16:27:00 GMT 51.521210 -0.669349 5,775 312 260 3392
2022-05-16 16:26:58 GMT 51.516220 -0.662149 5,875 315 262 3136
2022-05-16 16:26:55 GMT 51.516220 -0.662149 5,800 313 261 3328
2022-05-16 16:26:53 GMT 51.514427 -0.658875 5,500 308 256 3520
2022-05-16 16:26:50 GMT 51.512375 -0.654577 5,475 304 254 3520
2022-05-16 16:26:48 GMT 51.508942 -0.645076 5,250 298 249 4160
2022-05-16 16:26:45 GMT 51.508118 -0.642552 5,025 298 250 4096
2022-05-16 16:26:42 GMT 51.508118 -0.642552 5,025 298 249 4352
2022-05-16 16:26:39 GMT 51.504364 -0.631194 4,700 298 253 3840
2022-05-16 16:26:36 GMT 51.504364 -0.631194 4,500 298 252 3776
2022-05-16 16:26:34 GMT 51.503586 -0.628819 4,475 298 252 3776
2022-05-16 16:26:32 GMT 51.500885 -0.620505 4,050 298 247 3008
2022-05-16 16:26:29 GMT 51.500885 -0.620505 4,250 297 249 2816
2022-05-16 16:26:26 GMT 51.499146 -0.615012 4,050 298 246 2880
2022-05-16 16:26:23 GMT 51.496552 -0.606918 3,850 298 246 2880
2022-05-16 16:26:21 GMT 51.496552 -0.606918 3,775 298 244 2816
2022-05-16 16:26:18 GMT 51.494888 -0.601798 3,575 298 240 2496
2022-05-16 16:26:15 GMT 51.493790 -0.598458 3,500 298 239 2240
2022-05-16 16:26:13 GMT 51.492455 -0.594330 3,425 298 235 2176
2022-05-16 16:26:11 GMT 51.491730 -0.592222 3,425 298 235 2176
2022-05-16 16:26:08 GMT 51.487892 -0.580292 3,225 297 225 2240
2022-05-16 16:26:04 GMT 51.486633 -0.576248 3,125 297 225 2240
2022-05-16 16:26:02 GMT 51.486633 -0.576248 3,025 297 222 2240
2022-05-16 16:25:59 GMT 51.484406 -0.569211 2,875 298 217 2176
2022-05-16 16:25:56 GMT 51.484406 -0.569211 2,700 298 212 2368
2022-05-16 16:25:53 GMT 51.482803 -0.564385 2,725 298 213 2304
2022-05-16 16:25:51 GMT 51.482117 -0.562159 2,625 298 203 1856
2022-05-16 16:25:48 GMT 51.479324 -0.553622 2,525 298 209 2304
2022-05-16 16:25:46 GMT 51.479324 -0.553622 2,375 298 204 1984
2022-05-16 16:25:43 GMT 51.478363 -0.550653 2,300 298 204 1984
2022-05-16 16:25:41 GMT 51.477539 -0.548129 2,325 298 203 1856
2022-05-16 16:25:38 GMT 51.476208 -0.544128 2,075 299 199 1664
2022-05-16 16:25:34 GMT 51.474483 -0.539093 2,075 299 191 1600
2022-05-16 16:25:32 GMT 51.473648 -0.536549 2,000 299 191 1600
2022-05-16 16:25:31 GMT 51.473228 -0.535355 2,000 299 190 1600
2022-05-16 16:25:30 GMT 51.472458 -0.532985 1,975 298 187 1536
2022-05-16 16:25:28 GMT 51.472046 -0.531798 1,925 298 185 1472
2022-05-16 16:25:27 GMT 51.471645 -0.530548 1,900 298 185 1472
2022-05-16 16:25:26 GMT 51.470764 -0.527938 1,850 298 183 1408
2022-05-16 16:25:24 GMT 51.470016 -0.525513 1,800 298 182 1408
2022-05-16 16:25:22 GMT 51.469597 -0.524292 1,775 297 177 1280
2022-05-16 16:25:21 GMT 51.468842 -0.521851 1,750 297 176 1152
2022-05-16 16:25:19 GMT 51.468479 -0.520554 1,725 296 175 1216
2022-05-16 16:25:17 GMT 51.467876 -0.518646 1,675 294 170 1664
2022-05-16 16:25:16 GMT 51.467239 -0.516283 1,625 293 167 1600
2022-05-16 16:25:14 GMT 51.466782 -0.514650 1,575 292 165 1600
2022-05-16 16:25:12 GMT 51.466244 -0.512543 1,525 288 161 1472
2022-05-16 16:25:10 GMT 51.465958 -0.510938 1,500 286 159 1344
2022-05-16 16:25:08 GMT 51.465546 -0.508563 1,450 282 156 1344
2022-05-16 16:25:07 GMT 51.465267 -0.506210 1,400 278 153 1344
2022-05-16 16:25:05 GMT 51.465179 -0.505074 1,400 277 151 1280
2022-05-16 16:25:03 GMT 51.465034 -0.502625 1,325 274 148 1344
2022-05-16 16:25:02 GMT 51.464989 -0.500565 1,300 271 145 1472
2022-05-16 16:24:59 GMT 51.464996 -0.498319 1,225 271 144 1792
2022-05-16 16:24:57 GMT 51.464951 -0.496315 1,175 270 142 2304
2022-05-16 16:24:55 GMT 51.464989 -0.494003 1,075 270 142 2368
2022-05-16 16:24:54 GMT 51.464996 -0.492084 1,000 270 142 2496
2022-05-16 16:24:52 GMT 51.464989 -0.490646 950 270 143 2560
2022-05-16 16:24:51 GMT 51.464996 -0.489634 900 271 144 2624
2022-05-16 16:24:48 GMT 51.464951 -0.485551 725 270 145 2688
2022-05-16 16:24:46 GMT 51.464989 -0.484543 700 270 145 2624
2022-05-16 16:24:43 GMT 51.464989 -0.481339 600 270 146 2432
2022-05-16 16:24:42 GMT 51.464951 -0.479019 525 271 147 2176
2022-05-16 16:24:40 GMT 51.464951 -0.476346 450 271 147 2048
2022-05-16 16:24:38 GMT 51.464951 -0.475901 375 271 147 2048
2022-05-16 16:24:37 GMT 51.464943 -0.472946 300 271 147 2176
2022-05-16 16:24:35 GMT 51.464943 -0.472946 275 272 147 2048
2022-05-16 16:24:33 GMT 51.464893 -0.470734 200 272 148 2112
2022-05-16 16:24:31 GMT 51.464905 -0.468478 150 271 148 1984
2022-05-16 16:24:30 GMT 51.464859 -0.467364 125 271 148 1856
2022-05-16 16:24:28 GMT 51.464859 -0.465212 50 270 147 1280
2022-05-16 16:24:20 GMT 51.464859 -0.457046 25 270 122 0
2022-05-16 16:24:18 GMT 51.464859 -0.454225 25 270 114 0
2022-05-16 16:24:17 GMT 51.464859 -0.453409 25 270 114 0
2022-05-16 16:24:11 GMT 51.464905 -0.449474 25 270 91 64
2022-05-16 16:24:10 GMT 51.464893 -0.448227 25 270 87 64
2022-05-16 16:24:08 GMT 51.464893 -0.446796 0 270 80
2022-05-16 16:24:06 GMT 51.464909 -0.444698 0 270 62
2022-05-16 16:24:04 GMT 51.464909 -0.444698 0 270 62
2022-05-16 16:24:02 GMT 51.464909 -0.443726 0 270 53
2022-05-16 16:24:00 GMT 51.464909 -0.442886 0 270 44
2022-05-16 16:23:57 GMT 51.464905 -0.442348 0 270 39
2022-05-16 16:23:55 GMT 51.464905 -0.441847 0 270 30
2022-05-16 16:23:53 GMT 51.464909 -0.441494 0 270 20
2022-05-16 16:23:52 GMT 51.464920 -0.441227 0 267 7
2022-05-16 16:23:49 GMT 51.464916 -0.441123 0 267 2
2022-05-16 16:23:47 GMT 51.464916 -0.441105 0 267 0
2022-05-16 16:23:46 GMT 51.464920 -0.441113 0 267 0
2022-05-16 16:23:45 GMT 51.464920 -0.441113 0 267 0
2022-05-16 16:23:43 GMT 51.464916 -0.441105 0 267 0
2022-05-16 16:23:39 GMT 51.464916 -0.441105 0 267 0
2022-05-16 16:23:37 GMT 51.464920 -0.441113 0 267 0
2022-05-16 16:23:36 GMT 51.464920 -0.441113 0 267 2
2022-05-16 16:23:34 GMT 51.464920 -0.441093 0 267 3
2022-05-16 16:23:33 GMT 51.464909 -0.441036 0 261 4
2022-05-16 16:23:31 GMT 51.464909 -0.441036 0 258 4
2022-05-16 16:23:29 GMT 51.464893 -0.440993 0 250 4
2022-05-16 16:23:27 GMT 51.464886 -0.440922 0 236 3
2022-05-16 16:23:25 GMT 51.464893 -0.440845 0 222 3
2022-05-16 16:23:23 GMT 51.464893 -0.440826 0 216 3
2022-05-16 16:23:21 GMT 51.464893 -0.440807 0 210 3
2022-05-16 16:23:18 GMT 51.464916 -0.440771 0 199 3
2022-05-16 16:23:17 GMT 51.464931 -0.440731 0 191 3
2022-05-16 16:23:14 GMT 51.464954 -0.440693 0 182 4
2022-05-16 16:23:13 GMT 51.464973 -0.440697 0 180 4
2022-05-16 16:23:11 GMT 51.465008 -0.440697 0 180 6
2022-05-16 16:23:10 GMT 51.465042 -0.440697 0 180 7
2022-05-16 16:23:06 GMT 51.465191 -0.440697 0 180 8
2022-05-16 16:23:04 GMT 51.465244 -0.440693 0 180 10
2022-05-16 16:23:03 GMT 51.465431 -0.440693 0 180 11
2022-05-16 16:23:00 GMT 51.465431 -0.440693 0 180 11
2022-05-16 16:22:59 GMT 51.465534 -0.440697 0 180 11
2022-05-16 16:22:58 GMT 51.465534 -0.440697 0 180 11
2022-05-16 16:22:55 GMT 51.465675 -0.440693 0 180 11
2022-05-16 16:22:54 GMT 51.465744 -0.440693 0 180 11
2022-05-16 16:22:52 GMT 51.465912 -0.440697 0 180 11
2022-05-16 16:22:49 GMT 51.466175 -0.440693 0 180 11
2022-05-16 16:22:45 GMT 51.466175 -0.440693 0 180 11
2022-05-16 16:22:43 GMT 51.466278 -0.440697 0 180 12
2022-05-16 16:22:41 GMT 51.466358 -0.440697 0 180 12
2022-05-16 16:22:39 GMT 51.466442 -0.440693 0 180 13
2022-05-16 16:22:37 GMT 51.466633 -0.440697 0 180 13
2022-05-16 16:22:33 GMT 51.466816 -0.440697 0 180 13
2022-05-16 16:22:31 GMT 51.466988 -0.440697 0 177 13
2022-05-16 16:22:30 GMT 51.466988 -0.440697 0 177 13
2022-05-16 16:22:29 GMT 51.467037 -0.440712 0 174 13
2022-05-16 16:22:27 GMT 51.467178 -0.440712 0 160 13
2022-05-16 16:22:23 GMT 51.467434 -0.440956 0 115 13
2022-05-16 16:22:19 GMT 51.467491 -0.441105 0 104 12
2022-05-16 16:22:17 GMT 51.467525 -0.441272 0 92 13
2022-05-16 16:22:16 GMT 51.467525 -0.441418 0 90 14
2022-05-16 16:22:11 GMT 51.467537 -0.441903 0 90 17
2022-05-16 16:22:10 GMT 51.467537 -0.442028 0 90 17
2022-05-16 16:22:09 GMT 51.467537 -0.442218 0 90 19
2022-05-16 16:22:07 GMT 51.467537 -0.442467 0 90 20
2022-05-16 16:22:05 GMT 51.467537 -0.442719 0 90 21
2022-05-16 16:22:04 GMT 51.467537 -0.442961 0 90 22
2022-05-16 16:21:59 GMT 51.467525 -0.443764 0 90 22
2022-05-16 16:21:58 GMT 51.467525 -0.443897 0 90 22
2022-05-16 16:21:55 GMT 51.467525 -0.444298 0 90 21
2022-05-16 16:21:53 GMT 51.467525 -0.444698 0 90 21
2022-05-16 16:21:51 GMT 51.467525 -0.445004 0 90 20
2022-05-16 16:21:50 GMT 51.467525 -0.445150 0 90 20
2022-05-16 16:21:43 GMT 51.467525 -0.446148 0 90 18
2022-05-16 16:21:40 GMT 51.467514 -0.446548 0 90 18
2022-05-16 16:21:35 GMT 51.467514 -0.447178 0 90 21
2022-05-16 16:21:28 GMT 51.467514 -0.448342 0 90 22
2022-05-16 16:21:26 GMT 51.467514 -0.448751 0 90 22
2022-05-16 16:21:22 GMT 51.467514 -0.449333 0 90 21
2022-05-16 16:21:10 GMT 51.467503 -0.450840 0 90 18
2022-05-16 16:21:04 GMT 51.467503 -0.451609 0 90 16
2022-05-16 16:21:02 GMT 51.467503 -0.451832 0 90 16
2022-05-16 16:20:59 GMT 51.467503 -0.452202 0 90 15
2022-05-16 16:20:57 GMT 51.467503 -0.452444 0 90 15
2022-05-16 16:20:56 GMT 51.467503 -0.452666 0 90 14
2022-05-16 16:20:54 GMT 51.467503 -0.452759 0 90 14
2022-05-16 16:20:49 GMT 51.467503 -0.453242 0 90 12
2022-05-16 16:20:46 GMT 51.467491 -0.453557 0 90 12
2022-05-16 16:20:41 GMT 51.467491 -0.453928 0 90 10
2022-05-16 16:20:36 GMT 51.467491 -0.454292 0 90 9
2022-05-16 16:20:31 GMT 51.467491 -0.454617 0 90 8
2022-05-16 16:20:27 GMT 51.467491 -0.454801 0 90 7
2022-05-16 16:20:16 GMT 51.467491 -0.455246 0 90 8
2022-05-16 16:20:02 GMT 51.467491 -0.456638 0 90 21
2022-05-16 16:19:59 GMT 51.467480 -0.457115 0 90 21
2022-05-16 16:19:58 GMT 51.467480 -0.457362 0 90 21
2022-05-16 16:19:55 GMT 51.467491 -0.457770 0 90 20
2022-05-16 16:19:50 GMT 51.467480 -0.458531 0 90 19
2022-05-16 16:19:49 GMT 51.467480 -0.458679 0 90 19
2022-05-16 16:19:38 GMT 51.467468 -0.462521 0 90 27
2022-05-16 16:19:23 GMT 51.467468 -0.462521 0 90 27
2022-05-16 16:19:15 GMT 51.467468 -0.463943 0 92 24
2022-05-16 16:19:09 GMT 51.467480 -0.465082 0 90 23
2022-05-16 16:19:08 GMT 51.467480 -0.465240 0 90 22
2022-05-16 16:19:05 GMT 51.467480 -0.465935 0 90 21
2022-05-16 16:19:00 GMT 51.467480 -0.466499 0 90 20
2022-05-16 16:18:57 GMT 51.467480 -0.466938 0 90 19
2022-05-16 16:18:48 GMT 51.467468 -0.467958 0 90 18
2022-05-16 16:18:46 GMT 51.467468 -0.468385 0 90 17
2022-05-16 16:18:45 GMT 51.467468 -0.468521 0 90 17
2022-05-16 16:18:42 GMT 51.467468 -0.468864 0 90 16
2022-05-16 16:18:39 GMT 51.467468 -0.469220 0 90 15
2022-05-16 16:18:36 GMT 51.467468 -0.469475 0 90 15
2022-05-16 16:18:35 GMT 51.467468 -0.469685 0 90 14
2022-05-16 16:18:32 GMT 51.467468 -0.469870 0 90 14
2022-05-16 16:18:29 GMT 51.467468 -0.470219 0 90 13
2022-05-16 16:18:27 GMT 51.467457 -0.470501 0 90 13
2022-05-16 16:18:24 GMT 51.467457 -0.470723 0 90 13
2022-05-16 16:18:22 GMT 51.467457 -0.470909 0 90 13
2022-05-16 16:18:19 GMT 51.467457 -0.471150 0 90 12
2022-05-16 16:18:17 GMT 51.467457 -0.471262 0 90 11
2022-05-16 16:18:10 GMT 51.467457 -0.471973 0 90 16
2022-05-16 16:18:09 GMT 51.467457 -0.472134 0 90 16
2022-05-16 16:18:07 GMT 51.467457 -0.472356 0 90 17
2022-05-16 16:18:06 GMT 51.467457 -0.472488 0 90 18
2022-05-16 16:18:04 GMT 51.467457 -0.472802 0 90 19
2022-05-16 16:18:00 GMT 51.467457 -0.473507 0 90 19
2022-05-16 16:17:58 GMT 51.467457 -0.473637 0 90 19
2022-05-16 16:17:56 GMT 51.467445 -0.474027 0 90 18
2022-05-16 16:17:54 GMT 51.467445 -0.474027 0 90 17
2022-05-16 16:17:52 GMT 51.467445 -0.474286 0 90 16
2022-05-16 16:17:50 GMT 51.467445 -0.474567 0 90 16
2022-05-16 16:17:48 GMT 51.467445 -0.474899 0 90 15
2022-05-16 16:17:46 GMT 51.467445 -0.475010 0 90 15
2022-05-16 16:17:44 GMT 51.467445 -0.475216 0 90 14
2022-05-16 16:17:42 GMT 51.467445 -0.475426 0 90 13
2022-05-16 16:17:41 GMT 51.467445 -0.475521 0 90 13
2022-05-16 16:17:37 GMT 51.467445 -0.475827 0 90 11
2022-05-16 16:17:31 GMT 51.467445 -0.476322 0 90 12
2022-05-16 16:17:28 GMT 51.467445 -0.476513 0 90 13
2022-05-16 16:17:26 GMT 51.467434 -0.476699 0 90 14
2022-05-16 16:17:24 GMT 51.467434 -0.477009 0 90 15
2022-05-16 16:17:21 GMT 51.467434 -0.477349 0 90 14
2022-05-16 16:17:18 GMT 51.467434 -0.477775 0 90 12
2022-05-16 16:17:15 GMT 51.467434 -0.478276 0 90 10
2022-05-16 16:17:10 GMT 51.467434 -0.478276 0 90 10
2022-05-16 16:17:06 GMT 51.467434 -0.478554 0 90 9
2022-05-16 16:17:04 GMT 51.467434 -0.478870 0 90 13
2022-05-16 16:16:59 GMT 51.467434 -0.479164 0 90 16
2022-05-16 16:16:56 GMT 51.467422 -0.479565 0 90 19
2022-05-16 16:16:52 GMT 51.467422 -0.480175 0 90 21
2022-05-16 16:16:50 GMT 51.467422 -0.480461 0 90 20
2022-05-16 16:16:46 GMT 51.467422 -0.481052 0 90 19
2022-05-16 16:16:45 GMT 51.467422 -0.481190 0 90 19
2022-05-16 16:16:41 GMT 51.467422 -0.481840 0 90 17
2022-05-16 16:16:40 GMT 51.467422 -0.481840 0 90 17
2022-05-16 16:16:34 GMT 51.467422 -0.482521 0 90 18
2022-05-16 16:16:31 GMT 51.467422 -0.482922 0 90 17
2022-05-16 16:16:28 GMT 51.467411 -0.483621 0 106 14
2022-05-16 16:16:24 GMT 51.467411 -0.483621 0 90 15
2022-05-16 16:16:15 GMT 51.467480 -0.484586 0 140 13
2022-05-16 16:16:13 GMT 51.467548 -0.484697 0 151 12
2022-05-16 16:16:12 GMT 51.467617 -0.484772 0 163 12
2022-05-16 16:16:10 GMT 51.467709 -0.484846 0 174 12
2022-05-16 16:16:02 GMT 51.468201 -0.484865 0 180 15
2022-05-16 16:16:00 GMT 51.468338 -0.484865 0 180 16
2022-05-16 16:15:58 GMT 51.468468 -0.484867 0 180 16
2022-05-16 16:15:55 GMT 51.468658 -0.484865 0 180 15
2022-05-16 16:15:54 GMT 51.468750 -0.484865 0 180 15
2022-05-16 16:15:53 GMT 51.468853 -0.484865 0 180 15
2022-05-16 16:15:52 GMT 51.468922 -0.484867 0 180 14
2022-05-16 16:15:50 GMT 51.469040 -0.484867 0 180 14
2022-05-16 16:15:48 GMT 51.469162 -0.484865 0 180 14
2022-05-16 16:15:47 GMT 51.469273 -0.484867 0 180 13
2022-05-16 16:15:45 GMT 51.469341 -0.484867 0 180 13
2022-05-16 16:15:43 GMT 51.469460 -0.484867 0 180 12
2022-05-16 16:15:40 GMT 51.469620 -0.484865 0 180 12
2022-05-16 16:15:39 GMT 51.469666 -0.484867 0 180 11
2022-05-16 16:15:36 GMT 51.469921 -0.484867 0 180 10
2022-05-16 16:15:33 GMT 51.469963 -0.484883 0 180 10
2022-05-16 16:15:31 GMT 51.470051 -0.484886 0 180 9
2022-05-16 16:15:30 GMT 51.470135 -0.484883 0 180 9
2022-05-16 16:15:28 GMT 51.470181 -0.484886 0 180 8
2022-05-16 16:15:27 GMT 51.470215 -0.484886 0 180 8
2022-05-16 16:15:25 GMT 51.470284 -0.484886 0 180 8
2022-05-16 16:15:23 GMT 51.470364 -0.484883 0 180 7
2022-05-16 16:15:21 GMT 51.470478 -0.484883 0 180 7
2022-05-16 16:15:19 GMT 51.470478 -0.484883 0 180 7
2022-05-16 16:15:16 GMT 51.470528 -0.484886 0 180 6
2022-05-16 16:15:15 GMT 51.470592 -0.484883 0 180 6
2022-05-16 16:15:12 GMT 51.470661 -0.484883 0 180 5
2022-05-16 16:15:10 GMT 51.470673 -0.484883 0 180 5
2022-05-16 16:15:09 GMT 51.470718 -0.484883 0 180 4
2022-05-16 16:15:07 GMT 51.470741 -0.484883 0 177 4
2022-05-16 16:15:05 GMT 51.470772 -0.484886 0 180 4
2022-05-16 16:15:02 GMT 51.470818 -0.484886 0 180 3
2022-05-16 16:14:55 GMT 51.470867 -0.484883 0 180 0
2022-05-16 16:14:50 GMT 51.470913 -0.484886 0 180 0
2022-05-16 16:14:45 GMT 51.470913 -0.484865 0 180 0
2022-05-16 16:14:35 GMT 51.470913 -0.484865 0 180 0
2022-05-16 16:14:30 GMT 51.470901 -0.484886 0 180 0
2022-05-16 16:14:16 GMT 51.470901 -0.484902 0 180 0
2022-05-16 16:14:06 GMT 51.470901 -0.484905 0 180 0
2022-05-16 16:14:00 GMT 51.470890 -0.484902 0 180 0
2022-05-16 16:13:41 GMT 51.470913 -0.484883 0 180 0
2022-05-16 16:13:35 GMT 51.470913 -0.484886 0 180 0
2022-05-16 16:13:16 GMT 51.470901 -0.484883 0 180 0
2022-05-16 16:13:11 GMT 51.470890 -0.484883 0 180 0
2022-05-16 16:13:06 GMT 51.470890 -0.484886 0 180 0
2022-05-16 16:12:45 GMT 51.470936 -0.484846 0 180 0
2022-05-16 16:12:25 GMT 51.470936 -0.484867 0 180 0
2022-05-16 16:11:49 GMT 51.470924 -0.484886 0 180 0
2022-05-16 16:11:46 GMT 51.470924 -0.484886 0 180 0
2022-05-16 16:11:45 GMT 51.470913 -0.484883 0 180 0
2022-05-16 16:11:38 GMT 51.470913 -0.484883 0 180 0
2022-05-16 16:11:35 GMT 51.470913 -0.484886 0 180 0
2022-05-16 16:11:34 GMT 51.470913 -0.484886 0 180 0
2022-05-16 16:11:32 GMT 51.470913 -0.484902 0 180 0
2022-05-16 16:11:27 GMT 51.470901 -0.484924 0 188 1
2022-05-16 16:11:23 GMT 51.470879 -0.484962 0 199 0
2022-05-16 16:11:18 GMT 51.470879 -0.484994 0 205 1
2022-05-16 16:11:17 GMT 51.470879 -0.485001 0 208 2
2022-05-16 16:11:15 GMT 51.470879 -0.485013 0 213 2
2022-05-16 16:11:14 GMT 51.470879 -0.485032 0 216 2
2022-05-16 16:11:12 GMT 51.470867 -0.485050 0 222 2
2022-05-16 16:11:10 GMT 51.470867 -0.485077 0 225 2
2022-05-16 16:11:07 GMT 51.470867 -0.485115 0 233 2
2022-05-16 16:11:05 GMT 51.470867 -0.485134 0 236 2
2022-05-16 16:11:02 GMT 51.470867 -0.485180 0 241 3
2022-05-16 16:11:00 GMT 51.470867 -0.485217 0 247 3
2022-05-16 16:10:58 GMT 51.470867 -0.485229 0 250 3
2022-05-16 16:10:57 GMT 51.470867 -0.485254 0 253 3
2022-05-16 16:10:55 GMT 51.470867 -0.485287 0 255 3
2022-05-16 16:10:52 GMT 51.470867 -0.485344 0 261 3
2022-05-16 16:10:51 GMT 51.470867 -0.485366 0 261 3
2022-05-16 16:10:49 GMT 51.470867 -0.485384 0 264 3
2022-05-16 16:10:48 GMT 51.470867 -0.485420 0 264 3
2022-05-16 16:10:45 GMT 51.470867 -0.485458 0 267 3
2022-05-16 16:10:43 GMT 51.470867 -0.485495 0 267 3
2022-05-16 16:10:42 GMT 51.470867 -0.485514 0 267 3
2022-05-16 16:10:40 GMT 51.470867 -0.485570 0 267 3
2022-05-16 16:10:38 GMT 51.470867 -0.485588 0 267 3
2022-05-16 16:10:36 GMT 51.470867 -0.485611 0 270 3
2022-05-16 16:10:35 GMT 51.470867 -0.485663 0 270 3
2022-05-16 16:10:32 GMT 51.470867 -0.485687 0 270 3
2022-05-16 16:10:31 GMT 51.470867 -0.485706 0 270 3
2022-05-16 16:10:29 GMT 51.470867 -0.485737 0 270 3
2022-05-16 16:10:26 GMT 51.470867 -0.485792 0 270 3
2022-05-16 16:10:24 GMT 51.470867 -0.485830 0 270 3
2022-05-16 16:10:23 GMT 51.470867 -0.485848 0 270 3
2022-05-16 16:10:22 GMT 51.470867 -0.485878 0 270 3
2022-05-16 16:10:20 GMT 51.470867 -0.485904 0 270 3
2022-05-16 16:10:18 GMT 51.470867 -0.485922 0 270 3
2022-05-16 16:10:16 GMT 51.470867 -0.485973 0 270 3
2022-05-16 16:10:15 GMT 51.470867 -0.486031 0 270 3
2022-05-16 16:10:13 GMT 51.470867 -0.486031 0 270 3
2022-05-16 16:10:09 GMT 51.470867 -0.486089 0 270 3

Making use of Plane Finder data

You are free to use the raw flight data, aircraft information and images provided in this report for your own purposes provided the data is correctly attributed to Plane Finder. We ask that you please credit Plane Finder and link to planefinder.net in close proximity to the content.

Optionally one of the following logos (no smaller then 150x24px) can be used and must link to planefinder.net

Embedding the Plane Finder map

You are welcome to embed the Plane Finder playback map on your website to offer visitors a more interactive experience. We suggest using the following HTML code:

<iframe src="//planefinder.net/data/report/BA1488-G-EUOF-7700-squawk-2022-05-16/map" width="800" height="600" seamless="seamless"></iframe>

Where our data comes from

Plane Finder has a global network of data feeds and antenna radars that receive data broadcast directly from aircraft. The primary technologies used are ADS-B and MLAT. We also show feeds from the FAA and a FLARM glider feed.

Click here to find out more about the Plane Finder network.

How we collect our data